Latitude: N 50° 09' 49" Longitude: W 05° 11' 53" Elevation: 168m ASL

There are 4 visitors online

Adverts

<- Previous Day | Today | Next Day ->

All Data for 17 January 2018

Time
A - D
Temp
A - D
Dew Point
A - D
Humidity
A - D
Pressure
A - D
Wind
A - D
Wind Dir Gust
A - D
Rain Rate
A - D
Rain Total
00:00 3.5 2.9 96 1005.3 22.8 W 28.9 0.0 0.0
00:02 3.7 3.3 97 1005.2 23.5 WNW 28.9 0.0 0.0
00:03 3.7 3.3 97 1005.3 22.1 NW 28.9 0.0 0.0
00:04 3.8 3.4 97 1005.3 19.7 SW 28.9 0.0 0.0
00:06 3.9 3.5 97 1005.1 23.5 NW 38.7 0.0 0.0
00:07 3.9 3.5 97 1005.0 25.1 SW 38.7 0.0 0.0
00:09 4.0 3.6 97 1005.2 22.8 W 38.7 0.0 0.0
00:10 4.0 3.6 97 1005.4 25.1 SW 38.7 0.0 0.0
00:12 4.1 3.7 97 1005.4 25.1 SW 38.7 0.0 0.0
00:13 4.1 3.7 97 1005.4 22.1 N 38.7 0.0 0.0
00:15 4.1 3.5 96 1005.5 21.3 SW 38.7 0.0 0.0
00:16 4.0 3.4 96 1005.4 22.1 SW 28.2 0.0 0.0
00:18 4.0 3.4 96 1005.4 22.8 SW 28.9 0.0 0.0
00:19 3.9 3.3 96 1005.4 17.4 N 28.9 0.0 0.0
00:20 3.9 3.3 96 1005.5 21.3 SW 28.9 0.0 0.0
00:21 3.8 3.4 97 1005.4 22.1 SW 28.9 0.0 0.0
00:22 3.8 3.2 96 1005.3 24.4 SW 28.9 0.0 0.0
00:23 3.8 3.2 96 1005.5 22.1 SW 28.9 0.0 0.0
00:24 3.8 3.4 97 1005.2 24.4 SW 28.9 0.0 0.0
00:25 3.7 3.3 97 1005.2 18.3 SW 28.9 0.0 0.0
00:26 3.8 3.4 97 1005.1 23.5 SW 28.9 0.0 0.0
00:27 3.8 3.4 97 1005.1 19.7 SW 24.4 0.0 0.0
00:29 3.8 3.4 97 1005.3 19.0 NW 24.4 0.0 0.0
00:30 3.7 3.3 97 1005.4 18.3 W 24.4 0.0 0.0
00:31 3.8 3.4 97 1005.3 13.0 SW 24.4 0.0 0.0
00:32 3.8 3.4 97 1005.3 11.4 SW 24.4 0.0 0.0
00:33 3.8 3.4 97 1005.3 20.6 SW 24.4 0.0 0.0
00:34 3.8 3.4 97 1005.3 20.6 SW 24.4 0.0 0.0
00:35 3.8 3.4 97 1005.3 26.6 W 26.6 0.0 0.0
00:36 3.9 3.5 97 1005.4 23.5 SW 26.6 0.0 0.0
00:37 3.9 3.5 97 1005.3 22.1 W 26.6 0.0 0.0
00:39 4.1 3.7 97 1005.5 17.4 SW 26.6 0.0 0.0
00:40 4.1 3.7 97 1005.3 24.4 W 26.6 0.0 0.0
00:41 4.1 3.7 97 1005.3 33.6 W 33.6 0.0 0.0
00:42 4.2 3.8 97 1005.3 28.9 W 33.6 0.0 0.0
00:43 4.3 3.9 97 1005.3 22.1 W 34.9 0.0 0.0
00:44 4.4 4.0 97 1005.1 21.3 NW 34.9 0.0 0.0
00:45 4.4 3.8 96 1005.4 21.3 W 34.9 0.0 0.0
00:46 4.5 3.9 96 1005.6 19.0 S 34.9 0.0 0.0
00:47 4.5 3.9 96 1005.6 28.2 SW 34.9 0.0 0.0
00:48 4.6 4.0 96 1005.4 33.6 SW 34.9 0.0 0.0
00:49 4.6 3.9 95 1005.6 28.2 SW 40.3 0.0 0.0
00:50 4.6 3.9 95 1005.7 30.4 SW 40.3 0.0 0.0
00:51 4.6 3.9 95 1005.8 29.8 W 40.3 0.0 0.0
00:52 4.6 3.9 95 1006.0 32.7 SW 40.3 0.0 0.1
00:53 4.6 3.7 94 1006.1 25.1 W 40.3 0.8 0.1
00:54 4.5 3.8 95 1005.9 36.5 SW 40.3 0.8 0.1
00:55 4.5 3.6 94 1005.8 24.4 W 40.3 0.8 0.1
00:56 4.4 3.7 95 1006.0 30.4 W 40.3 0.8 0.1
00:58 4.3 3.6 95 1006.1 26.6 N 40.3 0.8 0.1
00:59 4.1 3.4 95 1006.0 19.7 WNW 40.3 0.8 0.2
01:00 4.1 3.4 95 1006.0 19.7 WNW 36.5 1.5 0.2
01:01 4.1 3.4 95 1005.8 19.7 WNW 36.5 1.5 0.2
01:02 4.1 3.4 95 1005.9 23.5 SW 36.5 1.5 0.2
01:03 4.0 3.3 95 1006.1 16.8 W 36.5 0.8 0.2
01:04 3.8 3.1 95 1006.0 18.3 W 36.5 0.8 0.2
01:05 3.9 3.2 95 1005.8 19.7 SW 30.4 0.0 0.2
01:06 3.8 3.1 95 1005.9 25.1 N 30.4 0.0 0.2
01:07 3.7 3.1 96 1006.1 15.2 W 26.6 0.0 0.2
01:08 3.7 3.1 96 1006.1 19.0 SW 25.1 0.0 0.2
01:09 3.7 3.1 96 1006.0 18.3 SW 25.1 0.0 0.2
01:10 3.7 3.1 96 1005.9 18.3 SW 25.1 0.0 0.2
01:11 3.6 3.0 96 1005.8 15.9 W 25.1 0.0 0.2
01:12 3.7 3.1 96 1005.8 18.3 SW 25.1 0.0 0.2
01:14 3.6 3.0 96 1005.8 15.2 SW 25.1 0.0 0.2
01:15 3.7 3.1 96 1005.7 15.9 SW 25.1 0.0 0.2
01:16 3.7 3.3 97 1005.7 13.0 W 19.0 0.0 0.2
01:17 3.7 3.3 97 1005.7 18.3 SW 19.0 0.0 0.2
01:18 3.7 3.3 97 1005.7 20.6 SW 20.6 0.0 0.2
01:19 3.8 3.4 97 1005.7 15.2 NW 20.6 0.0 0.2
01:20 3.8 3.4 97 1005.7 22.8 SW 22.8 0.0 0.2
01:21 3.9 3.5 97 1005.7 25.9 W 25.9 0.0 0.2
01:23 4.0 3.6 97 1006.4 43.4 SW 43.4 0.0 0.2
01:24 3.9 3.5 97 1006.4 41.2 SW 43.4 0.0 0.2
01:25 3.6 3.0 96 1006.6 30.4 N 43.4 0.0 0.2
01:26 3.5 2.9 96 1006.7 28.2 SW 43.4 0.0 0.2
01:27 3.4 2.8 96 1006.5 30.4 SW 43.4 0.0 0.3
01:28 3.3 2.9 97 1006.4 31.1 SW 43.4 0.8 0.3
01:29 3.2 2.8 97 1006.5 21.3 WNW 43.4 1.5 0.4
01:30 3.1 2.7 97 1006.5 28.2 WNW 43.4 2.3 0.4
01:31 3.1 2.7 97 1006.5 19.7 W 43.4 2.3 0.4
01:32 3.0 2.6 97 1006.4 25.1 NW 43.4 2.3 0.4
01:34 2.9 2.5 97 1006.6 19.7 W 41.2 1.5 0.4
01:35 2.9 2.5 97 1006.4 21.3 SW 37.4 0.8 0.4
01:36 2.9 2.5 97 1006.4 25.9 W 31.1 0.8 0.5
01:37 2.9 2.6 98 1006.4 23.5 W 31.1 1.5 0.5
01:38 2.8 2.5 98 1006.7 16.8 SW 31.1 0.8 0.5
01:39 2.8 2.5 98 1006.6 20.6 W 28.2 0.8 0.5
01:40 2.8 2.5 98 1006.7 19.7 W 28.2 0.8 0.5
01:41 2.7 2.4 98 1006.7 12.1 W 25.9 0.8 0.6
01:42 2.8 2.5 98 1006.7 18.3 W 25.9 0.8 0.6
01:43 2.8 2.5 98 1006.7 21.3 W 25.9 0.8 0.6
01:44 2.7 2.4 98 1006.6 28.2 WNW 28.2 0.8 0.6
01:45 2.8 2.7 99 1006.7 19.0 NW 28.2 0.8 0.6
01:46 2.8 2.7 99 1006.9 17.4 NW 28.2 0.8 0.6
01:47 2.8 2.7 99 1006.8 25.9 N 28.2 0.0 0.6
01:48 2.8 2.7 99 1006.7 20.6 NW 28.2 0.0 0.6
01:49 2.9 2.8 99 1006.4 22.8 W 28.2 0.0 0.6
01:50 2.9 2.8 99 1006.7 22.1 SW 28.2 0.0 0.6
01:51 3.0 2.9 99 1006.4 19.0 NW 28.2 0.0 0.6
01:52 3.0 2.9 99 1006.7 24.4 NW 28.2 0.0 0.6
01:53 3.0 2.9 99 1006.5 16.8 W 28.2 0.8 0.6
01:54 3.1 3.0 99 1006.8 14.5 NW 28.2 0.8 0.6
01:55 3.1 3.0 99 1006.8 26.6 W 26.6 0.8 0.6
01:56 3.1 3.0 99 1006.8 27.3 W 27.3 0.8 0.6
01:57 3.2 3.1 99 1006.9 20.6 W 27.3 0.8 0.6
01:59 3.2 3.1 99 1006.9 22.1 W 27.3 0.0 0.6
02:00 3.2 3.1 99 1006.8 25.1 N 27.3 0.0 0.6
02:01 3.2 3.1 99 1006.8 25.1 N 27.3 0.0 0.6
02:02 3.2 3.1 99 1006.8 31.1 SW 31.1 0.0 0.6
02:03 3.3 3.2 99 1006.7 17.4 W 31.1 0.0 0.6
02:04 3.3 3.2 99 1006.7 24.4 W 31.1 0.0 0.6
02:05 3.4 3.3 99 1006.8 24.4 W 31.1 0.0 0.6
02:06 3.4 3.3 99 1006.7 32.7 W 32.7 0.0 0.6
02:07 3.4 3.3 99 1006.8 21.3 SW 32.7 0.0 0.6
02:09 3.5 3.4 99 1006.9 21.3 SW 32.7 0.0 0.6
02:10 3.5 3.4 99 1006.7 25.1 SW 32.7 0.0 0.6
02:11 3.5 3.4 99 1006.8 28.9 W 32.7 0.0 0.6
02:12 3.6 3.5 99 1006.9 23.5 W 32.7 0.0 0.6
02:13 3.6 3.5 99 1006.9 25.9 W 32.7 0.0 0.6
02:14 3.7 3.6 99 1007.0 19.7 W 32.7 0.0 0.6
02:15 3.7 3.6 99 1006.9 28.2 SW 32.7 0.0 0.6
02:16 3.8 3.7 99 1006.9 22.8 SW 32.7 0.0 0.6
02:17 3.8 3.7 99 1006.9 23.5 SW 28.9 0.0 0.6
02:18 3.9 3.8 99 1006.8 24.4 SW 28.9 0.0 0.6
02:19 3.9 3.8 99 1007.0 21.3 NW 28.9 0.0 0.6
02:20 3.9 3.8 99 1006.8 20.6 SW 28.9 0.0 0.6
02:21 4.0 3.9 99 1006.7 23.5 SW 28.2 0.0 0.6
02:22 4.0 3.9 99 1006.8 23.5 W 28.2 0.8 0.7
02:24 4.0 3.9 99 1007.0 12.1 SW 28.2 0.8 0.7
02:25 4.0 3.9 99 1007.0 23.5 NW 28.2 0.8 0.7
02:26 4.1 4.0 99 1006.9 14.5 NW 24.4 0.8 0.7
02:27 4.1 4.0 99 1007.2 16.8 SW 24.4 0.0 0.7
02:29 4.1 4.0 99 1007.1 19.0 W 25.9 0.0 0.7
02:31 4.2 4.1 99 1007.2 17.4 W 25.9 0.0 0.7
02:37 4.3 4.2 99 1007.1 23.5 SW 25.9 0.0 0.7
02:39 4.4 4.1 98 1007.2 16.8 NW 27.3 0.0 0.7
02:41 4.5 4.2 98 1007.2 25.1 W 27.3 0.0 0.7
02:43 4.5 4.2 98 1007.3 27.3 W 27.3 0.0 0.7
02:45 4.5 4.2 98 1007.3 18.3 SW 27.3 0.0 0.7
02:46 4.5 4.1 97 1007.3 21.3 W 27.3 0.0 0.7
02:47 4.6 4.2 97 1007.2 20.6 W 27.3 0.0 0.7
02:48 4.6 4.2 97 1007.3 24.4 W 27.3 0.0 0.7
02:49 4.6 4.2 97 1007.2 24.4 W 27.3 0.0 0.7
02:50 4.6 4.2 97 1007.2 18.3 W 27.3 0.0 0.7
02:51 4.6 4.2 97 1007.2 19.0 W 27.3 0.0 0.7
02:52 4.6 4.2 97 1007.4 24.4 W 27.3 0.0 0.7
02:53 4.6 4.2 97 1007.2 22.1 W 27.3 0.0 0.7
02:54 4.6 4.2 97 1007.4 27.3 WNW 27.3 0.0 0.7
02:56 4.6 4.2 97 1007.6 25.9 NW 27.3 0.0 0.7
02:57 4.7 4.3 97 1007.7 25.1 SW 27.3 0.0 0.7
02:58 4.7 4.3 97 1007.7 23.5 SW 27.3 0.0 0.7
02:59 4.7 4.3 97 1007.6 28.2 SW 28.2 0.0 0.7
03:00 4.7 4.3 97 1007.8 23.5 SW 28.2 0.0 0.7
03:01 4.7 4.3 97 1007.8 23.5 SW 28.2 0.0 0.7
03:02 4.7 4.3 97 1007.6 23.5 SW 28.2 0.0 0.7
03:03 4.7 4.3 97 1007.6 23.5 SW 28.2 0.0 0.7
03:04 4.7 4.3 97 1007.6 23.5 SW 28.2 0.0 0.7
03:05 4.7 4.3 97 1007.6 23.5 SW 28.2 0.0 0.7
03:06 4.9 4.3 96 1007.8 20.6 NW 28.2 0.0 0.7
03:07 4.9 4.3 96 1007.9 15.9 W 28.2 0.0 0.7
03:08 4.9 4.3 96 1007.5 21.3 WNW 28.2 0.0 0.7
03:09 4.9 4.3 96 1008.0 24.4 W 24.4 0.0 0.7
03:10 4.9 4.3 96 1008.2 16.8 W 25.9 0.0 0.7
03:11 5.0 4.4 96 1008.1 15.2 E 25.9 0.0 0.7
03:12 4.9 4.3 96 1008.1 16.8 W 25.9 0.0 0.7
03:13 4.9 4.3 96 1008.1 18.3 W 25.9 0.0 0.7
03:14 4.9 4.2 95 1008.2 15.2 W 26.6 0.0 0.7
03:15 4.8 4.1 95 1008.1 22.1 SW 26.6 0.0 0.8
03:16 4.8 4.1 95 1008.2 21.3 SW 26.6 0.8 0.8
03:17 4.8 4.1 95 1008.1 22.8 W 26.6 0.8 0.8
03:19 4.7 4.0 95 1008.2 13.0 NNW 26.6 0.8 0.8
03:20 4.6 3.9 95 1008.5 19.7 WNW 26.6 0.8 0.8
03:21 4.5 3.8 95 1008.3 14.5 W 26.6 0.0 0.8
03:22 4.5 3.8 95 1008.3 13.0 W 26.6 0.0 0.8
03:23 4.5 3.8 95 1008.3 15.2 W 26.6 0.0 0.8
03:24 4.4 3.7 95 1008.2 13.6 W 26.6 0.0 0.8
03:25 4.4 3.7 95 1008.2 16.8 SW 23.5 0.0 0.8
03:26 4.2 3.5 95 1008.3 21.3 W 23.5 0.0 0.8
03:27 4.3 3.6 95 1008.4 18.3 N 23.5 0.0 0.8
03:28 4.3 3.6 95 1008.2 12.1 W 23.5 0.0 0.8
03:29 4.3 3.6 95 1008.2 13.0 SW 23.5 0.0 0.8
03:30 4.3 3.6 95 1008.5 13.0 SW 23.5 0.0 0.8
03:31 4.3 3.6 95 1008.4 17.4 W 21.3 0.0 0.8
03:32 4.2 3.5 95 1008.4 14.5 W 21.3 0.0 0.8
03:33 4.3 3.6 95 1008.5 21.3 W 21.3 0.0 0.8
03:34 4.4 3.7 95 1008.5 20.6 SW 21.3 0.0 0.8
03:35 4.3 3.6 95 1008.4 17.4 W 21.3 0.0 0.8
03:36 4.4 3.7 95 1008.5 24.4 W 24.4 0.0 0.8
03:37 4.4 3.7 95 1008.3 15.9 W 24.4 0.0 0.8
03:38 4.4 3.7 95 1008.5 19.7 N 24.4 0.0 0.8
03:39 4.4 3.5 94 1008.7 25.1 S 25.1 0.0 0.8
03:41 4.5 3.6 94 1008.6 28.9 NW 28.9 0.0 0.8
03:42 4.5 3.6 94 1008.6 22.8 SW 28.9 0.0 0.8
03:43 4.5 3.6 94 1008.7 25.9 NW 28.9 0.0 0.8
03:44 4.6 3.7 94 1008.6 17.4 NE 28.9 0.0 0.8
03:45 4.6 3.6 93 1008.8 15.9 NW 28.9 0.0 0.8
03:46 4.6 3.6 93 1008.5 22.1 SW 28.9 0.0 0.8
03:47 4.6 3.6 93 1008.8 19.0 NW 28.9 0.0 0.8
03:48 4.6 3.6 93 1008.8 18.3 SW 28.9 0.0 0.8
03:49 4.6 3.6 93 1008.7 22.8 NW 28.9 0.0 0.8
03:50 4.6 3.6 93 1008.9 17.4 SW 28.9 0.0 0.8
03:51 4.6 3.4 92 1008.8 23.5 NW 27.3 0.0 0.8
03:52 4.7 3.5 92 1008.8 15.9 W 27.3 0.0 0.8
03:53 4.7 3.5 92 1009.0 17.4 NW 27.3 0.0 0.8
03:54 4.7 3.5 92 1009.0 19.7 W 27.3 0.0 0.8
03:55 4.7 3.5 92 1009.0 19.7 SW 27.3 0.0 0.8
03:56 4.7 3.5 92 1009.0 20.6 W 27.3 0.0 0.8
03:57 4.7 3.5 92 1008.9 16.8 SW 27.3 0.0 0.8
03:58 4.7 3.5 92 1008.9 18.3 SW 27.3 0.0 0.8
03:59 4.7 3.5 92 1008.9 18.3 SW 24.4 0.0 0.8
04:01 4.7 3.5 92 1008.9 18.3 SW 23.5 0.0 0.8
04:02 4.7 3.4 91 1009.0 19.0 W 23.5 0.0 0.8
04:03 4.7 3.4 91 1009.1 11.4 W 23.5 0.0 0.8
04:04 4.7 3.4 91 1008.9 25.1 SW 25.1 0.0 0.8
04:05 4.6 3.3 91 1009.0 27.3 W 27.3 0.0 0.8
04:06 4.6 3.3 91 1009.1 13.6 NW 27.3 0.0 0.8
04:07 4.6 3.3 91 1009.1 34.2 SW 34.2 0.0 0.8
04:09 4.6 3.3 91 1009.1 14.5 NW 34.2 0.0 0.8
04:10 4.6 3.3 91 1009.0 18.3 WNW 34.2 0.0 0.8
04:11 4.6 3.3 91 1009.1 15.2 W 34.2 0.0 0.8
04:12 4.6 3.1 90 1009.0 13.6 W 34.2 0.0 0.8
04:14 4.6 3.1 90 1009.2 21.3 W 34.2 0.0 0.8
04:15 4.6 3.1 90 1009.4 17.4 SW 34.2 0.0 0.8
04:16 4.6 3.1 90 1009.2 16.8 W 34.2 0.0 0.8
04:17 4.7 3.2 90 1009.1 22.1 W 34.2 0.0 0.8
04:18 4.7 3.2 90 1009.2 23.5 W 23.5 0.0 0.8
04:19 4.7 3.2 90 1009.2 22.1 SW 23.5 0.0 0.8
04:20 4.7 3.2 90 1009.2 22.8 NW 23.5 0.0 0.8
04:21 4.7 3.0 89 1009.2 18.3 SW 23.5 0.0 0.8
04:22 4.7 3.0 89 1009.3 14.5 SW 23.5 0.0 0.8
04:23 4.7 3.0 89 1009.3 13.6 NW 23.5 0.0 0.8
04:24 4.7 3.0 89 1009.4 13.0 SW 23.5 0.0 0.8
04:25 4.6 2.9 89 1009.4 19.7 SW 23.5 0.0 0.8
04:26 4.7 3.0 89 1009.6 23.5 SW 23.5 0.0 0.8
04:27 4.7 3.0 89 1009.4 15.9 W 23.5 0.0 0.8
04:28 4.7 3.0 89 1009.5 13.6 W 23.5 0.0 0.8
04:29 4.7 3.0 89 1009.5 13.0 SW 23.5 0.0 0.8
04:31 4.7 3.0 89 1009.5 12.1 NW 23.5 0.0 0.8
04:32 4.7 3.0 89 1009.5 23.5 SW 23.5 0.0 0.8
04:33 4.7 3.0 89 1009.7 18.3 W 23.5 0.0 0.8
04:34 4.7 3.0 89 1009.7 21.3 W 23.5 0.0 0.8
04:35 4.7 3.0 89 1009.5 19.7 SW 23.5 0.0 0.8
04:36 4.7 3.0 89 1009.7 14.5 W 23.5 0.0 0.8
04:37 4.8 3.1 89 1009.7 14.5 SW 23.5 0.0 0.8
04:38 4.8 3.1 89 1009.7 14.5 W 23.5 0.0 0.8
04:39 4.8 3.1 89 1009.7 16.8 SW 23.5 0.0 0.8
04:40 4.8 3.1 89 1009.7 13.6 NE 23.5 0.0 0.8
04:41 4.8 3.1 89 1009.7 13.0 SW 23.5 0.0 0.8
04:42 4.8 3.1 89 1009.8 13.6 W 23.5 0.0 0.8
04:43 4.8 3.1 89 1009.7 13.6 SW 22.1 0.0 0.8
04:44 4.8 3.1 89 1009.8 22.8 S 22.8 0.0 0.8
04:45 4.8 3.0 88 1009.6 13.0 NW 22.8 0.0 0.8
04:46 4.8 3.0 88 1009.9 15.2 W 22.8 0.0 0.8
04:47 4.8 3.0 88 1009.8 14.5 SW 22.8 0.0 0.8
04:48 4.8 3.0 88 1010.0 15.9 W 22.8 0.0 0.8
04:49 4.9 3.1 88 1009.9 15.9 NW 22.8 0.0 0.8
04:50 4.9 3.1 88 1010.0 12.1 W 22.8 0.0 0.8
04:52 4.9 3.1 88 1010.0 13.6 SW 22.8 0.0 0.8
04:53 4.9 3.1 88 1010.0 19.0 SW 22.8 0.0 0.8
04:54 4.9 3.1 88 1010.1 14.5 W 22.8 0.0 0.8
04:55 4.9 3.1 88 1010.1 22.8 SW 22.8 0.0 0.8
04:56 4.9 3.1 88 1010.2 14.5 SW 22.8 0.0 0.8
04:57 4.9 3.1 88 1010.2 17.4 W 22.8 0.0 0.8
04:58 4.9 3.1 88 1010.2 14.5 W 22.8 0.0 0.8
04:59 4.9 3.1 88 1010.2 14.5 NW 22.8 0.0 0.8
05:00 4.9 3.1 88 1010.4 14.5 W 22.8 0.0 0.8
05:01 4.9 3.1 88 1010.3 14.5 W 22.8 0.0 0.8
05:02 4.9 3.1 88 1010.2 14.5 W 22.8 0.0 0.8
05:03 4.9 3.1 88 1010.2 14.5 W 22.8 0.0 0.8
05:04 4.9 3.1 88 1010.3 14.5 W 22.8 0.0 0.8
05:05 4.9 3.1 88 1010.2 14.5 W 17.4 0.0 0.8
05:06 4.9 3.1 88 1010.4 15.9 W 17.4 0.0 0.8
05:07 4.9 3.1 88 1010.4 13.6 SW 15.9 0.0 0.8
05:08 4.9 3.1 88 1010.5 13.6 NW 15.9 0.0 0.8
05:09 4.8 3.0 88 1010.3 20.6 SW 20.6 0.0 0.8
05:10 4.9 3.1 88 1010.4 22.8 SW 22.8 0.0 0.8
05:11 4.9 3.1 88 1010.5 12.1 SW 22.8 0.0 0.8
05:12 4.9 3.1 88 1010.5 13.6 W 22.8 0.0 0.8
05:14 4.9 2.9 87 1010.4 20.6 NW 22.8 0.0 0.8
05:15 4.9 3.1 88 1010.5 13.6 N 22.8 0.0 0.8
05:16 5.0 3.2 88 1010.7 9.8 W 22.8 0.0 0.8
05:17 5.0 3.2 88 1010.6 13.0 NW 22.8 0.0 0.8
05:18 5.0 3.2 88 1010.7 12.1 W 22.8 0.0 0.8
05:19 5.0 3.2 88 1010.6 13.6 W 22.8 0.0 0.8
05:20 5.0 3.2 88 1010.6 15.9 NW 22.8 0.0 0.8
05:21 5.0 3.2 88 1010.7 15.9 NW 20.6 0.0 0.8
05:22 5.0 3.2 88 1010.7 16.8 W 20.6 0.0 0.8
05:23 5.0 3.0 87 1010.9 13.6 W 20.6 0.0 0.8
05:24 5.0 3.0 87 1010.8 8.3 W 20.6 0.0 0.8
05:25 5.0 3.0 87 1010.8 7.6 W 20.6 0.0 0.8
05:26 5.0 3.0 87 1010.8 11.4 W 20.6 0.0 0.8
05:27 5.0 3.0 87 1010.9 12.1 W 20.6 0.0 0.8
05:28 5.0 3.0 87 1010.8 13.6 NW 20.6 0.0 0.8
05:29 5.0 3.0 87 1010.8 18.3 SW 20.6 0.0 0.8
05:30 5.0 3.2 88 1011.0 16.8 SW 18.3 0.0 0.8
05:31 5.0 3.0 87 1011.1 15.2 SW 18.3 0.0 0.8
05:33 5.1 3.1 87 1010.8 15.9 W 18.3 0.0 0.8
05:34 5.1 3.3 88 1011.0 17.4 W 18.3 0.0 0.8
05:35 5.1 3.1 87 1010.9 11.4 W 18.3 0.0 0.8
05:36 5.1 3.1 87 1010.9 13.6 W 18.3 0.0 0.8
05:37 5.1 3.1 87 1010.7 20.6 NW 20.6 0.0 0.8
05:38 5.1 3.1 87 1010.9 18.3 SW 20.6 0.0 0.8
05:39 5.1 3.1 87 1010.9 18.3 SW 20.6 0.0 0.8
05:40 5.1 3.1 87 1010.8 9.2 W 20.6 0.0 0.8
05:41 5.1 3.1 87 1010.9 14.5 W 20.6 0.0 0.8
05:42 5.1 3.1 87 1010.8 12.1 W 20.6 0.0 0.8
05:43 5.1 3.1 87 1010.8 9.2 NW 20.6 0.0 0.8
05:44 5.1 3.1 87 1010.9 13.0 SW 20.6 0.0 0.8
05:45 5.0 3.0 87 1010.7 13.6 NW 20.6 0.0 0.8
05:46 5.1 3.1 87 1011.0 9.2 NW 20.6 0.0 0.8
05:47 5.1 3.1 87 1011.0 13.0 NW 18.3 0.0 0.8
05:48 5.0 3.0 87 1011.0 11.4 E 18.3 0.0 0.8
05:49 5.1 3.1 87 1011.0 13.6 SW 14.5 0.0 0.8
05:50 5.0 3.0 87 1010.9 19.7 W 19.7 0.0 0.8
05:51 5.1 3.1 87 1011.0 14.5 SW 19.7 0.0 0.8
05:52 5.1 3.1 87 1011.1 15.2 WNW 19.7 0.0 0.8
05:54 5.1 3.1 87 1011.0 13.6 NW 19.7 0.0 0.8
05:55 5.1 3.1 87 1011.0 19.0 SW 19.7 0.0 0.8
05:56 5.1 3.1 87 1011.1 16.8 SW 23.5 0.0 0.8
05:57 5.1 3.1 87 1011.0 23.5 SW 23.5 0.0 0.8
05:58 5.1 3.1 87 1011.1 19.0 NW 23.5 0.0 0.8
05:59 5.2 3.2 87 1011.1 17.4 W 23.5 0.0 0.8
06:00 5.2 3.2 87 1011.2 10.7 W 23.5 0.0 0.8
06:01 5.2 3.2 87 1011.2 10.7 W 23.5 0.0 0.8
06:02 5.2 3.2 87 1011.2 10.7 W 23.5 0.0 0.8
06:03 5.2 3.2 87 1011.4 10.7 W 23.5 0.0 0.8
06:04 5.2 3.2 87 1011.3 10.7 W 23.5 0.0 0.8
06:05 5.3 3.3 87 1011.2 22.8 SW 23.5 0.0 0.8
06:06 5.4 3.4 87 1011.3 22.8 NW 23.5 0.0 0.8
06:07 5.4 3.4 87 1011.3 14.5 S 22.8 0.0 0.8
06:09 5.4 3.4 87 1011.4 9.8 W 22.8 0.0 0.8
06:10 5.4 3.2 86 1011.5 18.3 NW 22.8 0.0 0.8
06:11 5.4 3.2 86 1011.5 29.8 W 29.8 0.0 0.8
06:12 5.4 3.2 86 1011.4 15.9 SW 29.8 0.0 0.8
06:14 5.4 3.2 86 1011.5 14.5 W 29.8 0.0 0.8
06:15 5.4 3.2 86 1011.6 18.3 W 29.8 0.0 0.8
06:16 5.4 3.2 86 1011.5 15.2 SW 29.8 0.0 0.8
06:17 5.4 3.2 86 1011.7 22.1 SW 29.8 0.0 0.8
06:18 5.4 3.2 86 1011.7 19.0 SW 29.8 0.0 0.8
06:19 5.4 3.1 85 1011.5 15.9 NW 29.8 0.0 0.8
06:20 5.4 3.1 85 1011.7 15.2 SW 29.8 0.0 0.8
06:21 5.4 3.1 85 1011.7 18.3 W 29.8 0.0 0.8
06:22 5.4 3.1 85 1011.7 17.4 SW 22.1 0.0 0.8
06:23 5.4 3.1 85 1011.8 10.7 WNW 22.1 0.0 0.8
06:24 5.4 3.1 85 1011.9 7.6 NW 22.1 0.0 0.8
06:25 5.4 3.1 85 1011.8 13.0 SW 22.1 0.0 0.8
06:26 5.4 3.1 85 1011.9 13.6 NW 22.1 0.0 0.8
06:27 5.4 3.1 85 1011.8 23.5 W 23.5 0.0 0.8
06:28 5.4 3.1 85 1011.8 9.2 SW 23.5 0.0 0.8
06:29 5.4 3.1 85 1011.7 21.3 W 23.5 0.0 0.8
06:30 5.3 3.0 85 1011.9 15.2 NW 23.5 0.0 0.8
06:32 5.3 3.0 85 1012.0 11.4 SW 23.5 0.0 0.8
06:33 5.3 3.0 85 1011.8 13.6 WNW 23.5 0.0 0.8
06:34 5.3 2.8 84 1011.9 13.0 NW 23.5 0.0 0.8
06:35 5.4 2.9 84 1011.9 12.1 W 23.5 0.0 0.8
06:36 5.4 2.9 84 1011.8 17.4 W 23.5 0.0 0.8
06:37 5.4 2.9 84 1011.8 15.9 N 23.5 0.0 0.8
06:38 5.4 2.9 84 1011.8 19.7 SW 21.3 0.0 0.8
06:39 5.4 2.9 84 1011.8 13.0 W 21.3 0.0 0.8
06:40 5.4 2.9 84 1011.8 9.2 N 19.7 0.0 0.8
06:41 5.4 2.9 84 1011.8 11.4 SW 19.7 0.0 0.8
06:42 5.4 2.9 84 1011.8 11.4 W 19.7 0.0 0.8
06:43 5.4 2.9 84 1011.8 11.4 N 19.7 0.0 0.8
06:44 5.4 2.9 84 1011.9 11.4 W 19.7 0.0 0.8
06:45 5.4 2.9 84 1011.9 11.4 W 19.7 0.0 0.8
06:46 5.5 3.2 85 1011.9 15.2 W 19.7 0.0 0.8
06:48 5.5 3.2 85 1012.2 12.1 W 19.7 0.0 0.8
06:49 5.5 3.2 85 1012.1 18.3 W 19.0 0.0 0.8
06:50 5.5 3.2 85 1012.1 18.3 W 19.0 0.0 0.8
06:51 5.5 3.2 85 1012.1 19.0 W 19.0 0.0 0.8
06:52 5.6 3.4 86 1012.2 16.8 W 19.0 0.0 0.8
06:53 5.6 3.4 86 1012.1 16.8 NW 19.0 0.0 0.8
06:54 5.6 3.4 86 1012.1 20.6 NW 20.6 0.0 0.8
06:55 5.6 3.4 86 1012.2 13.6 SW 20.6 0.0 0.8
06:56 5.6 3.4 86 1012.2 16.8 SW 20.6 0.0 0.8
06:57 5.6 3.4 86 1012.1 13.6 NW 20.6 0.0 0.8
06:58 5.6 3.6 87 1012.3 9.8 SW 20.6 0.0 0.8
06:59 5.6 3.6 87 1012.1 16.8 N 20.6 0.0 0.8
07:00 5.6 3.6 87 1012.1 16.8 N 20.6 0.0 0.8
07:01 5.6 3.6 87 1012.2 16.8 N 20.6 0.0 0.8
07:03 5.6 3.6 87 1012.1 16.8 N 20.6 0.0 0.8
07:04 5.6 3.6 87 1012.2 16.8 N 20.6 0.0 0.8
07:05 5.6 3.6 87 1012.2 16.8 N 16.8 0.0 0.8
07:06 5.6 3.6 87 1012.4 9.2 W 16.8 0.0 0.8
07:07 5.6 3.6 87 1012.4 21.3 WNW 21.3 0.0 0.8
07:08 5.7 3.7 87 1012.4 19.7 SW 21.3 0.0 0.8
07:09 5.7 3.7 87 1012.3 21.3 W 21.3 0.0 0.8
07:10 5.7 3.7 87 1012.3 21.3 W 21.3 0.0 0.8
07:11 5.7 3.7 87 1012.4 27.3 SW 27.3 0.0 0.8
07:12 5.7 3.7 87 1012.4 19.0 W 27.3 0.0 0.8
07:13 5.7 3.7 87 1012.3 23.5 NW 27.3 0.0 0.8
07:14 5.7 3.7 87 1012.5 15.9 W 27.3 0.0 0.8
07:15 5.7 3.7 87 1012.5 18.3 W 27.3 0.0 0.8
07:16 5.7 3.7 87 1012.4 16.8 W 27.3 0.0 0.8
07:17 5.7 3.5 86 1012.5 19.7 WNW 27.3 0.0 0.8
07:19 5.7 3.7 87 1012.7 18.3 SW 27.3 0.0 0.8
07:20 5.7 3.7 87 1012.4 22.1 SW 27.3 0.0 0.8
07:21 5.7 3.5 86 1012.4 20.6 NW 27.3 0.0 0.8
07:22 5.7 3.5 86 1012.4 19.0 NW 23.5 0.0 0.8
07:23 5.7 3.5 86 1012.3 23.5 W 23.5 0.0 0.8
07:24 5.7 3.7 87 1012.5 19.7 NW 23.5 0.0 0.8
07:25 5.7 3.7 87 1012.6 15.2 W 23.5 0.0 0.8
07:26 5.7 3.7 87 1012.7 14.5 N 23.5 0.0 0.8
07:27 5.7 3.7 87 1012.7 19.0 WNW 23.5 0.0 0.8
07:28 5.7 3.7 87 1012.6 12.1 W 23.5 0.0 0.8
07:29 5.7 3.7 87 1012.7 20.6 SW 23.5 0.0 0.8
07:30 5.7 3.7 87 1012.7 20.6 SW 23.5 0.0 0.8
07:31 5.7 3.7 87 1012.7 15.9 NW 23.5 0.0 0.8
07:32 5.7 3.7 87 1012.6 20.6 SW 23.5 0.0 0.8
07:33 5.7 3.7 87 1012.8 9.2 W 22.1 0.0 0.8
07:34 5.7 3.7 87 1012.7 15.2 SW 20.6 0.0 0.8
07:35 5.7 3.7 87 1012.8 13.0 W 20.6 0.0 0.8
07:36 5.7 3.7 87 1012.8 13.0 W 20.6 0.0 0.8
07:37 5.7 3.7 87 1012.9 15.2 S 20.6 0.0 0.8
07:38 5.7 3.7 87 1012.7 18.3 SW 20.6 0.0 0.8
07:39 5.6 3.6 87 1012.7 20.6 NW 20.6 0.0 0.8
07:40 5.7 3.7 87 1012.9 13.6 NW 22.1 0.0 0.8
07:41 5.7 3.7 87 1012.8 13.6 SW 22.1 0.0 0.8
07:42 5.7 3.7 87 1012.9 18.3 SW 22.1 0.0 0.8
07:43 5.7 3.7 87 1012.9 16.8 SW 22.1 0.0 0.8
07:44 5.7 3.9 88 1012.8 11.4 SW 22.1 0.0 0.8
07:45 5.6 3.6 87 1012.7 13.6 W 22.1 0.0 0.8
07:46 5.7 3.9 88 1012.8 12.1 SW 22.1 0.0 0.8
07:47 5.7 3.9 88 1012.8 14.5 W 22.1 0.0 0.8
07:48 5.7 3.9 88 1012.7 21.3 SW 22.1 0.0 0.8
07:49 5.7 3.9 88 1012.8 15.2 SW 22.1 0.0 0.8
07:50 5.7 3.9 88 1012.9 15.2 SW 21.3 0.0 0.8
07:51 5.7 3.9 88 1013.0 19.0 SW 21.3 0.0 0.8
07:52 5.7 3.9 88 1013.0 15.2 N 21.3 0.0 0.8
07:53 5.8 4.0 88 1013.1 19.7 SW 21.3 0.0 0.8
07:54 5.7 3.9 88 1013.1 31.1 SW 31.1 0.0 0.8
07:55 5.8 4.0 88 1013.2 25.1 W 31.1 0.0 0.8
07:56 5.7 3.9 88 1013.1 31.1 W 31.1 0.0 0.8
07:57 5.7 3.9 88 1013.2 20.6 SW 31.1 0.0 0.8
07:58 5.6 3.8 88 1013.2 19.0 SW 31.1 0.0 0.8
07:59 5.5 3.7 88 1013.1 19.7 SW 31.1 0.0 0.8
08:00 5.5 3.7 88 1013.2 19.7 SW 31.1 0.0 0.8
08:01 5.5 3.7 88 1013.2 19.7 SW 31.1 0.0 0.8
08:02 5.3 3.5 88 1013.3 18.3 NW 31.1 0.0 0.8
08:03 5.3 3.5 88 1013.4 13.0 W 31.1 0.0 0.8
08:04 5.2 3.4 88 1013.5 13.0 SW 31.1 0.0 0.8
08:05 5.2 3.5 89 1013.2 15.9 S 31.1 0.0 0.8
08:06 5.1 3.3 88 1013.4 13.6 W 31.1 0.0 0.8
08:07 5.1 3.4 89 1013.3 22.8 W 22.8 0.0 0.8
08:09 5.0 3.3 89 1013.6 16.8 SW 22.8 0.0 0.8
08:10 5.0 3.3 89 1013.7 16.8 SW 22.8 0.0 0.8
08:12 4.9 3.2 89 1013.2 14.5 S 22.8 0.0 0.8
08:13 4.9 3.2 89 1013.3 14.5 W 22.8 0.0 0.8
08:14 4.9 3.4 90 1013.2 15.2 W 22.8 0.0 0.8
08:15 5.0 3.5 90 1013.3 19.7 W 22.8 0.0 0.8
08:16 5.0 3.5 90 1013.3 16.8 SW 22.8 0.0 0.8
08:17 5.0 3.5 90 1013.3 13.0 NW 22.8 0.0 0.8
08:18 5.0 3.5 90 1013.2 11.4 W 19.7 0.0 0.8
08:19 5.1 3.6 90 1013.2 14.5 W 19.7 0.0 0.8
08:20 5.1 3.8 91 1013.4 13.0 NW 19.7 0.0 0.8
08:22 5.0 3.7 91 1013.3 20.6 W 20.6 0.0 0.8
08:24 5.3 4.0 91 1013.3 18.3 W 21.3 0.0 0.8
08:25 5.3 4.0 91 1013.5 15.2 W 21.3 0.0 0.8
08:26 5.3 4.0 91 1013.5 14.5 SW 21.3 0.0 0.8
08:27 5.4 4.1 91 1013.6 18.3 W 21.3 0.0 0.8
08:28 5.4 4.1 91 1013.6 19.0 NW 22.8 0.0 0.8
08:29 5.4 4.1 91 1013.6 18.3 W 22.8 0.0 0.8
08:30 5.4 4.1 91 1013.7 18.3 W 22.8 0.0 0.8
08:31 5.5 4.3 92 1013.7 17.4 NW 22.8 0.0 0.8
08:32 5.6 4.4 92 1013.5 15.9 SW 24.4 0.0 0.8
08:33 5.6 4.2 91 1013.7 20.6 SW 24.4 0.0 0.8
08:34 5.6 4.2 91 1013.7 18.3 W 24.4 0.0 0.8
08:35 5.6 4.2 91 1013.7 15.9 NW 24.4 0.0 0.8
08:36 5.6 4.2 91 1013.8 12.1 SW 24.4 0.0 0.8
08:37 5.7 4.3 91 1013.8 12.1 W 24.4 0.0 0.8
08:38 5.7 4.3 91 1013.8 21.3 W 24.4 0.0 0.8
08:39 5.7 4.3 91 1014.0 15.2 SW 24.4 0.0 0.8
08:40 5.7 4.3 91 1013.9 14.5 NW 24.4 0.0 0.8
08:41 5.7 4.3 91 1013.9 21.3 SW 24.4 0.0 0.8
08:42 5.7 4.3 91 1013.9 17.4 NW 21.3 0.0 0.8
08:43 5.8 4.4 91 1014.0 15.9 SW 21.3 0.0 0.8
08:44 5.8 4.4 91 1013.7 15.9 SW 21.3 0.0 0.8
08:45 5.8 4.4 91 1013.9 15.9 W 21.3 0.0 0.8
08:46 5.8 4.4 91 1013.7 15.2 SW 21.3 0.0 0.8
08:47 5.8 4.4 91 1013.6 15.2 SW 21.3 0.0 0.8
08:48 5.8 4.4 91 1013.6 17.4 SW 21.3 0.0 0.8
08:49 5.8 4.4 91 1013.7 21.3 W 21.3 0.0 0.8
08:50 5.8 4.4 91 1013.7 21.3 W 21.3 0.0 0.8
08:51 5.9 4.5 91 1013.8 15.9 W 21.3 0.0 0.8
08:52 5.9 4.5 91 1013.8 16.8 SW 21.3 0.0 0.8
08:53 5.9 4.5 91 1014.0 20.6 SW 21.3 0.0 0.8
08:54 5.9 4.5 91 1013.8 13.0 WNW 21.3 0.0 0.8
08:55 5.9 4.5 91 1014.0 14.5 SW 21.3 0.0 0.8
08:56 5.9 4.5 91 1013.7 17.4 NW 21.3 0.0 0.8
08:57 5.9 4.4 90 1014.0 13.0 W 21.3 0.0 0.8
08:58 5.9 4.4 90 1013.9 21.3 NW 21.3 0.0 0.8
08:59 5.9 4.5 91 1014.0 11.4 SW 21.3 0.0 0.8
09:00 5.9 4.5 91 1014.0 11.4 SW 21.3 0.0 0.8
09:01 5.9 4.5 91 1014.1 11.4 SW 21.3 0.0 0.8
09:02 5.9 4.5 91 1013.9 11.4 SW 21.3 0.0 0.8
09:03 5.9 4.5 91 1014.0 11.4 SW 21.3 0.0 0.8
09:04 5.8 4.3 90 1014.1 23.5 NW 23.5 0.0 0.9
09:05 5.8 4.4 91 1014.0 22.1 NW 23.5 1.5 0.9
09:07 5.8 4.4 91 1014.0 13.0 W 23.5 1.5 0.9
09:08 5.7 4.3 91 1014.3 10.7 W 23.5 1.5 0.9
09:09 5.7 4.3 91 1014.2 15.9 SW 23.5 1.5 0.9
09:10 5.7 4.3 91 1014.2 15.9 SW 23.5 0.0 0.9
09:11 5.6 4.2 91 1014.0 13.0 SW 23.5 0.0 0.9
09:12 5.6 4.2 91 1014.0 19.0 SW 23.5 0.0 0.9
09:13 5.6 4.2 91 1014.2 14.5 W 23.5 0.0 0.9
09:14 5.6 4.2 91 1014.2 13.6 W 23.5 0.0 0.9
09:15 5.5 4.1 91 1014.2 16.8 W 22.1 0.0 0.9
09:16 5.5 4.1 91 1014.0 15.9 SW 19.0 0.0 0.9
09:17 5.5 4.1 91 1014.0 17.4 W 19.0 0.0 0.9
09:18 5.5 4.1 91 1014.1 13.6 W 19.0 0.0 0.9
09:19 5.5 4.3 92 1014.3 10.7 SW 19.0 0.0 0.9
09:20 5.6 4.4 92 1014.2 15.2 N 19.0 0.0 0.9
09:21 5.5 4.3 92 1014.2 14.5 SW 19.0 0.0 0.9
09:22 5.6 4.4 92 1014.2 9.8 SW 19.0 0.0 0.9
09:23 5.6 4.4 92 1014.2 10.7 SW 17.4 0.0 0.9
09:24 5.6 4.4 92 1014.2 15.9 W 17.4 0.0 0.9
09:25 5.6 4.4 92 1014.1 13.0 SW 17.4 0.0 0.9
09:26 5.6 4.4 92 1014.1 14.5 SW 17.4 0.0 0.9
09:27 5.7 4.5 92 1014.2 11.4 S 17.4 0.0 0.9
09:28 5.7 4.7 93 1014.1 22.8 W 22.8 0.0 0.9
09:29 5.8 4.8 93 1014.3 16.8 SW 22.8 0.0 0.9
09:30 5.8 4.8 93 1014.5 18.3 N 22.8 0.0 0.9
09:31 5.9 4.9 93 1014.6 20.6 N 22.8 0.8 0.9
09:32 5.9 4.7 92 1014.3 19.7 W 22.8 1.5 1.0
09:33 5.9 4.7 92 1014.3 21.3 W 22.8 1.5 1.0
09:34 5.8 4.6 92 1014.3 13.6 W 22.8 1.5 1.0
09:35 5.7 4.5 92 1014.4 16.8 W 22.8 1.5 1.0
09:36 5.6 4.2 91 1014.4 15.2 SW 22.8 0.8 1.1
09:37 5.5 4.1 91 1014.4 16.8 SW 22.8 0.8 1.1
09:38 5.5 4.1 91 1014.5 15.2 W 22.8 0.8 1.1
09:39 5.4 4.1 91 1014.2 14.5 SW 21.3 0.8 1.1
09:40 5.3 4.0 91 1014.4 10.7 W 21.3 1.5 1.1
09:41 5.3 4.0 91 1014.5 16.8 W 21.3 1.5 1.1
09:42 5.2 3.9 91 1014.6 11.4 SW 21.3 0.8 1.1
09:43 5.2 3.9 91 1014.5 15.2 NW 20.6 0.8 1.1
09:44 5.2 3.9 91 1014.5 15.2 W 20.6 0.8 1.1
09:45 5.1 3.8 91 1014.6 13.0 W 20.6 0.0 1.1
09:46 5.2 3.9 91 1014.4 18.3 W 20.6 0.0 1.2
09:47 5.2 4.0 92 1014.5 18.3 N 20.6 0.8 1.2
09:48 5.2 4.0 92 1014.5 16.8 N 20.6 0.8 1.2
09:49 5.2 4.0 92 1014.7 19.7 SW 20.6 0.8 1.2
09:50 5.3 4.1 92 1014.6 22.8 SW 22.8 0.8 1.2
09:51 5.4 4.2 92 1014.6 21.3 S 22.8 0.8 1.2
09:52 5.4 4.2 92 1014.5 16.8 W 22.8 0.0 1.2
09:53 5.5 4.5 93 1014.6 13.6 SW 22.8 0.0 1.2
09:54 5.5 4.5 93 1014.7 15.2 W 22.8 0.0 1.2
09:55 5.6 4.6 93 1014.7 15.2 SW 22.8 0.0 1.2
09:56 5.6 4.6 93 1014.6 22.1 SW 22.8 0.0 1.2
09:57 5.7 4.5 92 1014.7 16.8 NW 22.8 0.0 1.2
09:58 5.7 4.7 93 1014.7 17.4 SW 22.8 0.0 1.2
09:59 5.7 4.7 93 1014.5 19.7 W 22.8 0.0 1.2
10:00 5.7 4.7 93 1014.7 19.7 W 22.8 0.0 1.2
10:02 5.8 4.8 93 1014.6 19.0 SW 22.1 0.0 1.2
10:03 5.9 4.9 93 1014.8 16.8 NW 22.1 0.0 1.2
10:04 6.0 5.0 93 1014.7 18.3 W 22.1 0.0 1.2
10:05 6.1 5.1 93 1014.8 16.8 SW 22.1 0.0 1.2
10:06 6.1 5.1 93 1014.8 16.8 SW 22.1 0.0 1.2
10:07 6.2 5.2 93 1014.8 12.1 NW 19.7 0.0 1.2
10:08 6.3 5.3 93 1014.9 9.8 W 19.7 0.0 1.2
10:09 6.4 5.4 93 1015.0 13.0 SW 19.7 0.0 1.2
10:11 6.5 5.5 93 1014.9 16.8 SW 19.7 0.0 1.2
10:12 6.6 5.6 93 1014.9 12.1 W 18.3 0.0 1.2
10:14 6.7 5.6 93 1014.7 13.0 SW 18.3 0.0 1.2
10:15 6.8 5.7 93 1014.8 20.6 SW 20.6 0.0 1.2
10:16 6.8 5.7 93 1015.0 15.2 SW 20.6 0.0 1.2
10:17 6.9 5.7 92 1015.0 14.5 SW 20.6 0.0 1.2
10:18 7.0 5.8 92 1014.8 20.6 W 20.6 0.0 1.2
10:19 7.0 5.8 92 1015.0 17.4 W 20.6 0.0 1.2
10:20 7.0 5.8 92 1014.8 16.8 SW 20.6 0.0 1.2
10:21 7.1 5.9 92 1014.8 16.8 W 20.6 0.0 1.2
10:23 7.1 5.9 92 1014.9 20.6 W 20.6 0.0 1.2
10:24 7.2 5.8 91 1014.9 16.8 SW 20.6 0.0 1.2
10:25 7.2 5.8 91 1014.9 18.3 SW 20.6 0.0 1.2
10:26 7.2 5.8 91 1015.0 19.0 SW 20.6 0.0 1.2
10:27 7.2 5.8 91 1015.0 17.4 WNW 20.6 0.0 1.2
10:28 7.2 5.8 91 1015.0 12.1 NW 20.6 0.0 1.2
10:29 7.2 5.8 91 1015.0 18.3 SW 20.6 0.0 1.2
10:30 7.2 5.7 90 1014.8 16.8 W 20.6 0.0 1.2
10:31 7.2 5.7 90 1014.9 13.0 NW 20.6 0.0 1.2
10:32 7.2 5.7 90 1015.0 16.8 W 20.6 0.0 1.2
10:33 7.2 5.7 90 1014.8 15.9 W 19.0 0.0 1.2
10:34 7.2 5.7 90 1014.7 15.2 WNW 19.0 0.0 1.2
10:35 7.2 5.7 90 1014.8 18.3 WNW 19.0 0.0 1.2
10:36 7.2 5.7 90 1014.9 15.9 NW 19.0 0.0 1.2
10:37 7.3 5.6 89 1014.7 20.6 W 24.4 0.0 1.2
10:38 7.3 5.6 89 1014.9 18.3 WNW 24.4 0.0 1.2
10:39 7.4 5.7 89 1014.9 19.0 NW 24.4 0.0 1.2
10:40 7.4 5.7 89 1014.8 15.9 NW 24.4 0.0 1.2
10:41 7.5 5.8 89 1014.9 13.6 WNW 24.4 0.0 1.2
10:42 7.5 5.8 89 1014.9 13.6 W 24.4 0.0 1.2
10:44 7.6 5.9 89 1014.9 15.2 W 24.4 0.0 1.2
10:45 7.6 5.9 89 1015.1 15.2 SW 24.4 0.0 1.2
10:46 7.6 5.7 88 1014.9 20.6 SW 24.4 0.0 1.2
10:47 7.6 5.7 88 1015.0 19.0 SW 24.4 0.0 1.2
10:48 7.7 5.7 87 1014.9 27.3 SW 27.3 0.0 1.2
10:49 7.7 5.7 87 1015.0 23.5 SW 27.3 0.0 1.2
10:50 7.7 5.7 87 1015.0 22.8 SW 27.3 0.0 1.2
10:51 7.7 5.7 87 1015.0 18.3 W 27.3 0.0 1.2
10:52 7.7 5.7 87 1014.9 22.1 W 27.3 0.0 1.2
10:53 7.7 5.7 87 1015.1 17.4 W 27.3 0.0 1.2
10:54 7.7 5.7 87 1015.1 13.6 SW 27.3 0.0 1.2
10:55 7.7 5.7 87 1015.1 15.9 SW 27.3 0.0 1.2
10:56 7.6 5.6 87 1015.1 15.9 W 27.3 0.0 1.2
10:57 7.6 5.6 87 1015.1 17.4 NW 27.3 0.0 1.2
10:58 7.6 5.6 87 1015.0 18.3 NW 27.3 0.0 1.2
10:59 7.6 5.6 87 1015.1 15.2 NW 23.5 0.0 1.2
11:00 7.6 5.6 87 1015.1 22.1 W 22.1 0.0 1.2
11:01 7.6 5.6 87 1014.9 18.3 SW 22.1 0.0 1.2
11:02 7.6 5.6 87 1015.2 19.0 SW 22.1 0.0 1.2
11:03 7.6 5.6 87 1015.3 14.5 SW 22.1 0.0 1.2
11:04 7.7 5.7 87 1015.2 15.2 NW 22.1 0.0 1.2
11:05 7.7 5.7 87 1015.3 12.1 NW 22.1 0.0 1.2
11:06 7.7 5.5 86 1015.2 18.3 NW 22.1 0.0 1.2
11:07 7.6 5.4 86 1015.3 17.4 SW 22.1 0.0 1.2
11:08 7.6 5.4 86 1015.4 16.8 SW 22.1 0.0 1.2
11:09 7.6 5.4 86 1015.3 13.6 SW 22.1 0.0 1.2
11:10 7.7 5.5 86 1015.3 13.6 W 22.1 0.0 1.2
11:11 7.6 5.4 86 1015.3 13.6 W 19.0 0.0 1.2
11:12 7.7 5.5 86 1015.2 15.9 W 19.0 0.0 1.2
11:13 7.7 5.5 86 1015.2 20.6 SW 20.6 0.0 1.2
11:14 7.7 5.5 86 1015.2 20.6 SW 20.6 0.0 1.2
11:15 7.7 5.5 86 1015.2 12.1 WNW 20.6 0.0 1.2
11:16 7.7 5.5 86 1015.3 17.4 SW 20.6 0.0 1.2
11:17 7.6 5.4 86 1015.2 13.0 W 20.6 0.0 1.2
11:18 7.7 5.5 86 1015.2 13.0 SW 20.6 0.0 1.2
11:20 7.7 5.5 86 1015.2 11.4 SW 20.6 0.0 1.2
11:21 7.7 5.5 86 1015.2 13.0 W 20.6 0.0 1.2
11:22 7.7 5.5 86 1015.3 10.7 SW 20.6 0.0 1.2
11:23 7.7 5.7 87 1015.3 13.0 NW 20.6 0.0 1.2
11:24 7.8 5.8 87 1015.3 13.6 SW 17.4 0.0 1.2
11:25 7.8 5.8 87 1015.2 13.0 SW 17.4 0.0 1.2
11:26 7.8 5.8 87 1015.2 17.4 SW 17.4 0.0 1.2
11:27 7.8 5.8 87 1015.2 15.9 W 17.4 0.0 1.2
11:28 7.8 5.8 87 1015.1 13.6 SW 17.4 0.0 1.2
11:29 7.8 5.8 87 1015.1 14.5 SW 17.4 0.0 1.2
11:30 7.7 5.7 87 1015.3 12.1 W 17.4 0.0 1.2
11:31 7.7 5.7 87 1015.5 23.5 W 23.5 0.0 1.2
11:32 7.7 5.7 87 1015.5 15.9 W 23.5 0.0 1.3
11:33 7.6 5.6 87 1015.7 22.8 W 23.5 1.5 1.4
11:34 7.6 5.6 87 1015.6 17.4 SW 23.5 3.0 1.4
11:35 7.4 5.4 87 1015.6 13.0 SW 23.5 3.0 1.4
11:36 7.3 5.3 87 1015.6 13.6 W 23.5 3.0 1.4
11:37 7.2 5.2 87 1015.5 15.2 W 23.5 3.0 1.4
11:38 7.1 5.2 88 1015.6 13.0 SW 23.5 1.5 1.4
11:39 7.0 5.2 88 1015.5 9.8 W 23.5 0.0 1.4
11:40 6.9 5.1 88 1015.4 10.7 SW 23.5 0.0 1.4
11:41 6.9 5.1 88 1015.5 13.0 SW 23.5 0.0 1.4
11:42 6.8 5.1 89 1015.5 10.7 SW 22.8 0.0 1.4
11:43 6.7 5.0 89 1015.4 14.5 SW 22.8 0.0 1.4
11:44 6.7 5.0 89 1015.4 13.0 N 21.3 0.0 1.4
11:45 6.7 5.0 89 1015.4 13.6 SW 15.9 0.0 1.4
11:46 6.6 5.1 90 1015.4 12.1 SW 15.9 0.0 1.4
11:47 6.6 5.1 90 1015.4 15.9 SW 16.8 0.0 1.4
11:48 6.6 5.1 90 1015.1 18.3 SW 18.3 0.0 1.4
11:49 6.6 5.1 90 1015.4 18.3 NW 18.3 0.0 1.4
11:50 6.5 5.0 90 1015.3 16.8 W 18.3 0.0 1.4
11:52 6.5 5.0 90 1015.3 15.2 W 18.3 0.0 1.4
11:53 6.5 5.1 91 1015.3 12.1 SW 18.3 0.0 1.4
11:54 6.6 5.2 91 1015.3 14.5 SW 18.3 0.0 1.4
11:55 6.6 5.2 91 1015.3 13.6 SW 18.3 0.0 1.4
11:56 6.6 5.2 91 1015.3 19.7 S 19.7 0.0 1.4
11:57 6.6 5.2 91 1015.2 17.4 W 19.7 0.0 1.4
11:58 6.6 5.4 92 1015.1 14.5 SW 19.7 0.0 1.4
11:59 6.7 5.5 92 1015.2 13.6 W 19.7 0.0 1.4
12:00 6.7 5.5 92 1015.2 13.6 SW 19.7 0.0 1.4
12:01 6.7 5.5 92 1015.2 13.6 SW 19.7 0.0 1.4
12:02 6.7 5.6 93 1015.1 16.8 SW 19.7 0.0 1.4
12:03 6.8 5.7 93 1015.2 17.4 SW 19.7 0.0 1.4
12:04 6.8 5.7 93 1015.2 17.4 W 19.7 0.0 1.4
12:05 6.9 5.8 93 1015.1 15.9 SW 19.7 0.0 1.4
12:06 7.0 5.9 93 1015.1 15.9 SW 19.7 0.0 1.4
12:07 7.1 6.0 93 1015.1 15.2 SW 17.4 0.0 1.4
12:08 7.1 6.0 93 1015.0 17.4 SW 17.4 0.0 1.4
12:09 7.3 6.2 93 1015.1 18.3 W 18.3 0.0 1.4
12:11 7.4 6.0 91 1015.1 19.0 SW 19.0 0.0 1.4
12:12 7.4 6.0 91 1015.1 19.0 NW 19.0 0.0 1.4
12:14 7.5 6.0 90 1015.3 16.8 W 19.0 0.0 1.4
12:15 7.6 6.1 90 1015.1 14.5 NW 19.0 0.0 1.4
12:17 7.6 6.1 90 1015.3 13.6 SW 19.0 0.0 1.4
12:18 7.7 6.2 90 1015.2 15.2 SW 19.0 0.0 1.4
12:19 7.8 6.1 89 1015.1 14.5 W 19.0 0.0 1.4
12:20 7.8 6.1 89 1015.2 16.8 SW 19.0 0.0 1.4
12:21 7.8 6.1 89 1015.2 14.5 W 19.0 0.0 1.4
12:22 7.9 6.2 89 1015.0 16.8 SW 19.0 0.0 1.4
12:23 8.0 6.3 89 1015.2 16.8 SW 19.0 0.0 1.4
12:24 8.0 6.3 89 1015.2 13.0 W 16.8 0.0 1.4
12:25 8.0 6.5 90 1015.4 11.4 SW 16.8 0.0 1.4
12:26 8.1 6.6 90 1015.3 15.9 SW 16.8 0.0 1.4
12:27 8.2 6.5 89 1015.2 19.7 SW 19.7 0.0 1.4
12:28 8.2 6.5 89 1015.2 19.7 SW 19.7 0.0 1.4
12:29 8.2 6.5 89 1015.2 17.4 N 19.7 0.0 1.4
12:30 8.2 6.3 88 1015.2 14.5 N 19.7 0.0 1.4
12:31 8.2 6.3 88 1015.3 19.0 W 19.7 0.0 1.4
12:32 8.2 6.3 88 1015.2 17.4 W 19.7 0.0 1.4
12:33 8.2 6.3 88 1015.2 17.4 W 19.7 0.0 1.4
12:34 8.2 6.5 89 1015.2 14.5 SW 19.7 0.0 1.4
12:35 8.3 6.6 89 1015.3 13.0 NW 19.7 0.0 1.4
12:36 8.2 6.5 89 1015.3 15.9 SW 19.7 0.0 1.4
12:37 8.2 6.5 89 1015.3 14.5 W 19.7 0.0 1.4
12:38 8.2 6.5 89 1015.2 9.8 W 19.7 0.0 1.4
12:39 8.2 6.5 89 1015.1 15.9 W 19.7 0.0 1.4
12:40 8.2 6.5 89 1015.1 14.5 W 19.7 0.0 1.4
12:41 8.1 6.4 89 1015.2 12.1 W 19.0 0.0 1.4
12:43 8.1 6.2 88 1015.2 9.8 W 17.4 0.0 1.4
12:44 8.0 6.1 88 1015.2 11.4 SW 15.9 0.0 1.4
12:45 8.0 6.1 88 1015.1 15.2 S 15.9 0.0 1.4
12:46 7.9 6.0 88 1015.3 14.5 W 17.4 0.0 1.4
12:47 7.9 6.0 88 1015.2 13.6 W 17.4 0.0 1.4
12:48 7.9 6.2 89 1015.5 16.8 SW 17.4 0.0 1.4
12:49 7.8 5.9 88 1015.3 22.8 N 22.8 0.0 1.4
12:50 7.7 5.8 88 1015.1 19.7 NW 22.8 0.0 1.4
12:51 7.7 6.0 89 1015.1 16.8 NW 22.8 0.0 1.4
12:52 7.6 5.9 89 1015.1 22.1 W 22.8 0.0 1.4
12:53 7.5 5.8 89 1015.2 17.4 SW 22.8 0.0 1.4
12:54 7.5 5.8 89 1015.2 17.4 SW 22.8 0.0 1.4
12:55 7.4 5.7 89 1015.2 17.4 NW 22.8 0.0 1.4
12:56 7.4 5.7 89 1015.0 19.0 W 22.8 0.0 1.4
12:57 7.3 5.6 89 1015.2 19.7 W 22.8 0.0 1.4
12:58 7.3 5.6 89 1015.2 15.2 SW 22.8 0.0 1.4
12:59 7.2 5.5 89 1015.2 15.2 NW 22.1 0.0 1.4
13:00 7.2 5.7 90 1015.2 16.8 WSW 22.1 0.0 1.4
13:01 7.2 5.7 90 1015.2 16.8 WSW 22.1 0.0 1.4
13:02 7.2 5.7 90 1015.1 16.8 WSW 19.7 0.0 1.4
13:03 7.2 5.7 90 1015.2 16.8 WSW 19.7 0.0 1.4
13:04 7.2 5.7 90 1015.2 16.8 WSW 19.7 0.0 1.4
13:05 7.3 5.9 91 1015.2 19.0 SW 19.7 0.0 1.4
13:06 7.3 5.9 91 1015.2 20.6 SW 20.6 0.0 1.4
13:07 7.3 5.9 91 1015.1 15.2 SW 20.6 0.0 1.4
13:08 7.4 6.0 91 1015.2 12.1 SW 20.6 0.0 1.4
13:09 7.4 6.0 91 1015.3 16.8 NNW 20.6 0.0 1.4
13:10 7.4 6.0 91 1015.2 15.2 SW 20.6 0.0 1.4
13:11 7.5 6.1 91 1015.2 16.8 SW 20.6 0.0 1.4
13:12 7.5 6.1 91 1015.2 15.2 SW 20.6 0.0 1.4
13:13 7.6 6.2 91 1015.1 14.5 W 20.6 0.0 1.4
13:14 7.6 6.2 91 1015.2 13.0 SW 20.6 0.0 1.4
13:15 7.6 6.2 91 1015.0 18.3 SW 20.6 0.0 1.4
13:16 7.7 6.3 91 1015.1 13.0 SW 18.3 0.0 1.4
13:17 7.7 6.3 91 1014.9 15.2 SW 18.3 0.0 1.4
13:18 7.7 6.3 91 1015.2 15.2 SW 18.3 0.0 1.4
13:19 7.7 6.3 91 1014.9 15.2 W 21.3 0.0 1.4
13:20 7.7 6.3 91 1015.0 18.3 SW 21.3 0.0 1.4
13:21 7.7 6.3 91 1014.9 15.2 NNW 21.3 0.0 1.4
13:22 7.7 6.3 91 1015.0 15.2 N 21.3 0.0 1.4
13:23 7.7 6.3 91 1015.1 15.9 SW 21.3 0.0 1.4
13:24 7.7 6.3 91 1015.1 19.0 SW 21.3 0.0 1.4
13:25 7.7 6.3 91 1014.9 17.4 SW 21.3 0.0 1.4
13:26 7.7 6.3 91 1015.0 17.4 WNW 21.3 0.0 1.4
13:27 7.7 6.3 91 1015.1 21.3 WNW 21.3 0.0 1.4
13:28 7.7 6.3 91 1015.1 18.3 SW 21.3 0.0 1.4
13:30 7.7 6.3 91 1015.0 15.9 SW 21.3 0.0 1.4
13:31 7.7 6.2 90 1014.8 21.3 N 21.3 0.0 1.4
13:32 7.7 6.3 91 1014.9 14.5 SW 21.3 0.0 1.4
13:33 7.7 6.2 90 1014.9 15.2 W 21.3 0.0 1.4
13:34 7.7 6.2 90 1014.9 20.6 W 21.3 0.0 1.4
13:35 7.7 6.2 90 1015.1 20.6 NW 21.3 0.0 1.4
13:36 7.7 6.2 90 1014.9 23.5 NW 23.5 0.0 1.4
13:37 7.7 6.2 90 1014.9 20.6 W 23.5 0.0 1.4
13:38 7.6 6.1 90 1014.9 19.7 NW 23.5 0.0 1.4
13:39 7.6 6.1 90 1014.9 14.5 W 23.5 0.0 1.4
13:40 7.6 6.1 90 1014.9 17.4 W 23.5 0.0 1.4
13:41 7.5 6.0 90 1015.1 15.2 SW 23.5 0.0 1.4
13:42 7.5 6.0 90 1014.9 16.8 W 23.5 0.0 1.4
13:43 7.4 5.9 90 1014.9 17.4 NW 23.5 0.0 1.4
13:44 7.4 5.9 90 1015.0 18.3 SW 23.5 0.0 1.4
13:45 7.3 5.8 90 1015.0 13.0 W 23.5 0.0 1.4
13:46 7.3 5.8 90 1014.9 9.2 SW 20.6 0.0 1.4
13:47 7.2 5.7 90 1014.9 15.9 SW 20.6 0.0 1.4
13:48 7.2 5.7 90 1015.0 13.0 SW 19.7 0.0 1.4
13:49 7.1 5.6 90 1014.9 13.6 W 18.3 0.0 1.4
13:50 7.1 5.7 91 1014.9 12.1 SW 18.3 0.0 1.4
13:51 7.0 5.6 91 1014.9 12.1 SW 18.3 0.0 1.4
13:52 7.0 5.6 91 1014.9 13.0 W 18.3 0.0 1.4
13:53 7.0 5.6 91 1015.0 11.4 W 18.3 0.0 1.4
13:54 7.0 5.6 91 1014.7 8.3 SW 17.4 0.0 1.4
13:55 7.0 5.6 91 1014.9 15.9 SW 15.9 0.0 1.4
13:56 7.0 5.6 91 1014.8 10.7 SW 15.9 0.0 1.4
13:57 6.9 5.5 91 1015.0 10.7 W 15.9 0.0 1.4
13:58 6.9 5.5 91 1015.0 14.5 SW 15.9 0.0 1.4
13:59 6.9 5.5 91 1014.9 11.4 NW 15.9 0.0 1.4
14:00 6.9 5.5 91 1014.9 11.4 NW 15.9 0.0 1.4
14:01 6.9 5.5 91 1014.9 11.4 NW 15.9 0.0 1.4
14:02 6.9 5.7 92 1014.7 12.1 W 15.9 0.0 1.4
14:03 6.9 5.7 92 1014.7 10.7 SW 15.9 0.0 1.4
14:04 6.9 5.7 92 1014.7 12.1 W 15.9 0.0 1.4
14:05 6.9 5.7 92 1014.7 13.6 W 14.5 0.0 1.4
14:06 6.9 5.7 92 1014.7 9.8 SW 14.5 0.0 1.4
14:07 6.9 5.7 92 1014.7 8.3 SW 14.5 0.0 1.4
14:08 6.9 5.7 92 1014.8 7.6 SW 13.6 0.0 1.4
14:10 6.9 5.8 93 1014.6 9.2 SW 13.6 0.0 1.4
14:11 6.9 5.8 93 1014.6 11.4 SW 13.6 0.0 1.4
14:13 6.9 5.8 93 1014.7 10.7 SW 13.6 0.0 1.4
14:14 6.9 5.8 93 1014.7 9.2 W 13.6 0.0 1.4
14:15 6.9 5.8 93 1014.5 9.8 SW 13.6 0.0 1.4
14:17 6.9 5.8 93 1014.6 10.7 SW 12.1 0.0 1.4
14:18 6.9 5.8 93 1014.6 9.8 SW 12.1 0.0 1.4
14:19 6.9 6.0 94 1014.5 9.8 S 12.1 0.0 1.4
14:20 6.9 6.0 94 1014.4 7.6 SW 12.1 0.0 1.4
14:21 6.9 6.0 94 1014.5 6.9 SW 12.1 0.0 1.4
14:22 7.0 6.1 94 1014.5 8.3 SW 11.4 0.0 1.4
14:23 7.0 6.1 94 1014.5 8.3 SW 10.7 0.0 1.4
14:24 7.0 6.1 94 1014.4 8.3 W 10.7 0.0 1.4
14:25 7.0 6.1 94 1014.3 8.3 SW 10.7 0.0 1.4
14:26 7.0 6.1 94 1014.4 8.3 W 10.7 0.8 1.5
14:27 7.0 6.1 94 1014.3 9.8 W 10.7 0.8 1.5
14:28 7.0 6.1 94 1014.3 9.2 W 9.8 0.8 1.5
14:29 7.0 6.1 94 1014.3 12.1 SW 12.1 0.8 1.5
14:30 7.0 6.1 94 1014.2 13.6 W 13.6 0.8 1.6
14:31 7.0 6.1 94 1014.4 15.9 W 15.9 1.5 1.6
14:32 7.0 6.3 95 1014.3 13.6 SW 15.9 1.5 1.6
14:33 7.0 6.1 94 1014.3 10.7 NW 15.9 1.5 1.6
14:34 6.9 6.0 94 1014.2 12.1 W 15.9 1.5 1.6
14:35 6.9 6.0 94 1014.4 14.5 SW 15.9 1.5 1.7
14:36 6.9 6.2 95 1014.3 13.6 N 15.9 0.8 1.7
14:37 6.8 6.1 95 1014.4 11.4 SW 15.9 0.8 1.7
14:38 6.8 6.1 95 1014.6 12.1 W 15.9 1.5 1.8
14:39 6.8 6.1 95 1014.6 7.6 SW 15.9 1.5 1.8
14:40 6.7 6.0 95 1014.4 12.1 W 15.9 1.5 1.8
14:41 6.7 6.0 95 1014.6 12.1 SW 15.9 0.8 1.8
14:42 6.7 6.0 95 1014.7 11.4 W 14.5 2.3 1.9
14:43 6.6 5.9 95 1014.8 13.0 W 14.5 3.0 2.0
14:44 6.6 5.9 95 1014.7 11.4 W 14.5 3.0 2.1
14:45 6.6 5.9 95 1014.7 15.2 NW 15.2 3.8 2.1
14:46 6.6 5.9 95 1014.8 15.2 SW 15.2 4.5 2.1
14:47 6.6 6.0 96 1014.7 15.9 W 15.9 3.8 2.2
14:48 6.5 5.9 96 1014.6 15.2 W 15.9 2.3 2.3
14:50 6.5 5.9 96 1014.6 13.0 W 15.9 2.3 2.3
14:51 6.4 5.8 96 1014.7 13.0 WNW 15.9 1.5 2.3
14:52 6.4 5.8 96 1014.5 14.5 SW 15.9 0.8 2.3
14:53 6.4 5.8 96 1014.4 11.4 SW 15.9 0.8 2.3
14:54 6.3 5.7 96 1014.4 14.5 W 15.9 0.0 2.3
14:55 6.3 5.7 96 1014.4 14.5 W 15.9 0.0 2.3
14:56 6.3 5.7 96 1014.6 13.0 SW 15.9 0.0 2.3
14:57 6.2 5.6 96 1014.5 14.5 SW 15.9 0.0 2.3
14:58 6.2 5.6 96 1014.5 10.7 SW 15.9 0.0 2.3
14:59 6.3 5.7 96 1014.5 9.2 SW 15.2 0.0 2.3
15:00 6.2 5.6 96 1014.5 9.8 SW 15.2 0.0 2.3
15:01 6.2 5.6 96 1014.5 9.8 SW 15.2 0.0 2.3
15:02 6.2 5.6 96 1014.6 13.0 SW 15.2 0.0 2.3
15:03 6.2 5.8 97 1014.5 15.9 SW 15.9 0.0 2.3
15:04 6.1 5.7 97 1014.5 13.0 NW 15.9 0.0 2.3
15:05 6.2 5.8 97 1014.2 13.6 SW 15.9 0.0 2.3
15:06 6.1 5.7 97 1014.3 12.1 W 15.9 0.0 2.3
15:07 6.1 5.7 97 1014.3 9.8 SW 15.9 0.0 2.3
15:08 6.2 5.8 97 1014.3 12.1 SW 15.9 0.0 2.3
15:09 6.2 5.8 97 1014.2 10.7 SW 15.9 0.0 2.3
15:10 6.2 5.8 97 1014.2 13.0 SW 15.9 0.0 2.3
15:11 6.2 5.8 97 1014.4 9.8 SW 15.9 0.0 2.3
15:12 6.2 5.8 97 1014.4 6.9 SW 15.9 0.0 2.3
15:14 6.2 5.8 97 1014.2 9.2 SW 15.9 0.0 2.3
15:15 6.2 5.8 97 1014.3 8.3 W 13.6 0.0 2.3
15:16 6.2 5.8 97 1014.2 10.7 SW 13.0 0.0 2.3
15:17 6.2 5.8 97 1014.1 9.2 SW 13.0 0.0 2.3
15:18 6.2 5.8 97 1014.2 6.9 SW 13.0 0.0 2.3
15:19 6.2 5.8 97 1014.2 9.8 SW 13.0 0.0 2.3
15:20 6.2 5.8 97 1014.2 8.3 SW 13.0 0.0 2.3
15:21 6.2 5.8 97 1014.2 9.2 SW 13.0 0.0 2.3
15:22 6.2 5.8 97 1014.2 6.9 S 10.7 0.0 2.3
15:23 6.2 5.8 97 1014.2 6.9 SW 10.7 0.0 2.3
15:24 6.2 5.8 97 1014.1 9.2 SW 10.7 0.0 2.3
15:25 6.2 5.9 98 1014.2 6.9 SW 10.7 0.0 2.3
15:26 6.3 5.9 97 1014.1 9.8 SW 10.7 0.0 2.3
15:27 6.3 5.9 97 1014.1 8.3 S 9.8 0.0 2.3
15:28 6.3 6.0 98 1014.2 6.9 SW 9.8 0.0 2.3
15:29 6.3 6.0 98 1014.1 6.9 SW 9.8 0.0 2.3
15:32 6.3 6.0 98 1014.0 6.0 SW 9.8 1.5 2.4
15:34 6.3 6.0 98 1013.9 6.0 SW 9.8 2.3 2.5
15:36 6.3 6.0 98 1014.0 6.9 SW 9.8 1.5 2.5
15:37 6.3 6.0 98 1014.0 6.9 SW 8.3 1.5 2.5
15:38 6.3 6.0 98 1013.9 6.9 SW 8.3 1.5 2.5
15:40 6.3 6.0 98 1013.9 9.2 SW 9.8 1.5 2.6
15:41 6.3 6.0 98 1013.7 9.2 SW 9.8 1.5 2.6
15:42 6.3 6.0 98 1014.0 9.8 SW 9.8 1.5 2.6
15:43 6.3 6.0 98 1014.1 9.2 SW 9.8 1.5 2.6
15:44 6.3 6.0 98 1013.9 15.9 SW 15.9 2.3 2.7
15:45 6.3 6.0 98 1014.0 14.5 W 15.9 2.3 2.8
15:46 6.3 6.2 99 1013.9 13.0 SW 15.9 1.5 2.8
15:47 6.3 6.2 99 1013.8 11.4 W 15.9 2.3 2.8
15:48 6.3 6.2 99 1013.9 12.1 NW 15.9 2.3 2.8
15:49 6.2 6.1 99 1013.7 11.4 NW 15.9 1.5 2.8
15:50 6.2 6.1 99 1013.7 13.0 SW 15.9 0.8 2.8
15:51 6.2 6.1 99 1013.7 12.1 N 15.9 0.8 2.8
15:52 6.2 6.1 99 1013.5 10.7 W 15.9 0.0 2.8
15:54 6.2 6.1 99 1013.5 7.6 W 14.5 0.0 2.8
15:55 6.1 6.0 99 1013.6 9.2 W 13.0 0.0 2.8
15:56 6.1 6.0 99 1013.7 7.6 SW 13.0 0.0 2.8
15:57 6.1 6.0 99 1013.6 9.2 SW 13.0 0.0 2.8
15:58 6.1 6.0 99 1013.4 9.2 SW 13.0 0.0 2.8
15:59 6.1 6.0 99 1013.6 8.3 SW 13.0 0.0 2.8
16:00 6.1 6.0 99 1013.5 9.8 SW 13.0 0.0 2.8
16:01 6.1 6.0 99 1013.5 9.8 SW 12.1 0.0 2.8
16:02 6.1 6.0 99 1013.5 9.8 SW 10.7 0.0 2.8
16:03 6.1 6.0 99 1013.3 9.8 SW 9.8 0.0 2.8
16:04 6.1 6.0 99 1013.4 9.8 SW 9.8 0.0 2.8
16:05 6.1 6.0 99 1013.5 9.8 SW 9.8 0.0 2.8
16:06 6.0 5.9 99 1013.5 11.4 W 11.4 1.5 3.0
16:07 6.1 6.0 99 1013.5 10.7 N 11.4 1.5 3.0
16:08 6.0 5.9 99 1013.3 10.7 W 11.4 1.5 3.0
16:09 6.1 6.0 99 1013.5 9.8 W 11.4 1.5 3.0
16:11 6.1 6.0 99 1013.2 9.8 S 11.4 0.0 3.0
16:12 6.1 6.0 99 1013.3 9.2 W 11.4 0.0 3.0
16:14 6.1 6.0 99 1013.4 9.8 N 11.4 0.0 3.0
16:15 6.1 6.0 99 1013.2 9.2 S 11.4 0.0 3.0
16:17 6.1 6.0 99 1013.2 8.3 W 10.7 0.0 3.0
16:19 6.1 6.0 99 1013.2 10.7 S 13.0 0.0 3.0
16:20 6.2 6.1 99 1013.3 13.0 WSW 13.0 0.0 3.0
16:21 6.2 6.1 99 1013.2 9.2 WSW 13.0 0.0 3.0
16:22 6.2 6.1 99 1012.9 9.8 S 13.0 0.0 3.0
16:23 6.2 6.1 99 1013.1 13.0 S 13.0 0.0 3.0
16:24 6.2 6.1 99 1013.0 15.2 S 15.2 0.0 3.0
16:25 6.2 6.1 99 1013.1 13.6 WSW 15.2 0.0 3.0
16:26 6.3 6.2 99 1012.9 11.4 WSW 15.2 0.0 3.0
16:27 6.3 6.2 99 1013.1 8.3 WSW 15.2 0.0 3.0
16:28 6.3 6.2 99 1013.0 11.4 S 15.2 0.0 3.0
16:29 6.3 6.2 99 1012.9 14.5 S 15.2 0.0 3.0
16:31 6.4 6.3 99 1013.0 13.6 WSW 15.2 0.0 3.0
16:32 6.4 6.3 99 1012.9 15.9 WSW 15.9 0.0 3.0
16:33 6.4 6.3 99 1013.0 14.5 WSW 19.0 0.0 3.0
16:34 6.5 6.4 99 1012.9 15.9 WSW 19.0 0.0 3.0
16:35 6.5 6.4 99 1012.8 9.8 WSW 19.0 0.0 3.0
16:36 6.5 6.4 99 1012.8 16.8 WSW 19.0 0.0 3.0
16:37 6.6 6.5 99 1012.9 10.7 WSW 19.0 0.0 3.0
16:38 6.6 6.5 99 1013.0 10.7 N 19.0 0.0 3.0
16:39 6.6 6.5 99 1013.1 13.0 W 19.0 0.0 3.0
16:40 6.6 6.5 99 1013.2 10.7 W 19.0 0.0 3.0
16:41 6.6 6.5 99 1013.2 17.4 N 19.0 0.0 3.0
16:42 6.7 6.6 99 1012.9 15.2 N 19.0 0.0 3.0
16:44 6.7 6.6 99 1012.8 17.4 N 17.4 0.0 3.0
16:45 6.7 6.6 99 1012.8 15.2 S 18.3 0.0 3.0
16:46 6.7 6.6 99 1012.6 11.4 S 18.3 0.0 3.0
16:47 6.8 6.7 99 1012.5 11.4 S 18.3 0.0 3.0
16:48 6.7 6.6 99 1012.6 15.9 NW 18.3 0.0 3.0
16:50 6.8 6.7 99 1012.2 13.0 N 18.3 0.0 3.0
16:51 6.8 6.7 99 1012.4 14.5 S 18.3 0.0 3.0
16:52 6.8 6.7 99 1012.2 17.4 S 18.3 0.0 3.0
16:53 6.8 6.7 99 1012.3 19.7 SW 21.3 0.0 3.0
16:54 6.8 6.7 99 1012.5 15.9 S 21.3 0.0 3.0
16:55 6.9 6.8 99 1012.4 14.5 SW 21.3 0.0 3.0
16:57 6.9 6.8 99 1012.4 9.8 SW 21.3 0.0 3.0
16:58 6.9 6.8 99 1012.6 9.8 W 21.3 0.0 3.0
16:59 6.9 6.8 99 1012.4 14.5 SW 21.3 0.0 3.0
17:00 6.9 6.8 99 1012.4 14.5 SW 21.3 0.0 3.0
17:01 6.9 6.8 99 1012.4 14.5 SW 21.3 0.0 3.0
17:02 6.9 6.8 99 1012.4 14.5 SW 21.3 0.0 3.0
17:03 6.9 6.8 99 1012.5 14.5 SW 19.7 0.0 3.0
17:04 6.9 6.8 99 1012.6 14.5 SW 16.8 0.0 3.0
17:06 6.9 6.8 99 1012.7 16.8 SW 16.8 0.0 3.0
17:07 6.9 6.8 99 1012.7 13.0 SW 16.8 0.0 3.0
17:08 6.9 6.8 99 1012.6 13.6 SW 16.8 0.0 3.0
17:09 7.0 6.9 99 1012.7 15.9 SW 16.8 0.0 3.0
17:10 7.0 6.9 99 1012.6 12.1 SW 16.8 0.0 3.0
17:11 7.0 6.9 99 1012.8 15.9 SW 16.8 0.0 3.0
17:12 7.0 6.9 99 1012.8 15.2 SW 16.8 0.0 3.0
17:13 7.0 6.9 99 1012.7 14.5 SW 16.8 0.0 3.0
17:14 7.0 6.9 99 1012.7 11.4 SW 16.8 0.0 3.0
17:15 7.0 6.9 99 1012.6 14.5 SW 16.8 0.0 3.0
17:16 7.0 6.9 99 1012.7 13.6 SW 16.8 0.0 3.0
17:17 7.0 6.9 99 1012.6 15.2 W 16.8 0.8 3.1
17:18 7.0 6.9 99 1012.5 19.7 SW 19.7 2.3 3.1
17:20 7.0 6.9 99 1012.7 19.7 SW 19.7 2.3 3.1
17:21 7.0 6.9 99 1012.5 18.3 SW 19.7 2.3 3.1
17:22 7.0 6.9 99 1012.3 13.6 S 19.7 1.5 3.1
17:23 7.0 6.9 99 1012.1 11.4 S 19.7 0.0 3.1
17:24 7.1 7.0 99 1012.3 10.7 S 19.7 0.0 3.1
17:25 7.0 6.9 99 1012.2 12.1 S 19.7 0.0 3.1
17:26 7.0 6.9 99 1012.2 17.4 S 19.7 0.0 3.1
17:27 7.0 6.9 99 1012.1 14.5 S 19.7 0.0 3.1
17:28 7.0 6.9 99 1012.2 13.6 S 19.7 0.0 3.1
17:29 7.0 6.9 99 1012.2 19.7 N 19.7 0.0 3.1
17:31 7.1 7.0 99 1012.2 21.3 NW 22.1 0.0 3.1
17:32 7.1 7.0 99 1012.2 14.5 S 22.1 0.0 3.1
17:33 7.1 7.0 99 1012.1 13.6 N 22.1 0.0 3.1
17:34 7.1 7.0 99 1012.2 15.9 S 22.1 0.0 3.1
17:36 7.1 7.0 99 1012.2 19.0 S 22.1 0.0 3.1
17:37 7.1 7.0 99 1012.1 15.2 WSW 22.1 0.0 3.1
17:38 7.1 7.0 99 1011.9 13.6 N 22.1 0.0 3.1
17:39 7.1 7.0 99 1012.1 15.9 S 22.1 0.0 3.1
17:40 7.0 6.9 99 1012.0 15.9 S 21.3 0.0 3.1
17:42 7.0 6.9 99 1012.0 15.9 S 19.0 0.0 3.1
17:43 7.0 6.9 99 1012.0 16.8 S 19.0 0.0 3.1
17:44 7.0 6.9 99 1012.0 15.2 N 19.0 0.0 3.1
17:45 7.0 6.9 99 1012.1 15.9 S 19.0 0.0 3.1
17:46 7.0 6.9 99 1011.9 18.3 S 19.0 0.0 3.1
17:47 7.0 6.9 99 1011.9 18.3 S 21.3 0.0 3.1
17:48 7.0 6.9 99 1011.9 14.5 S 21.3 0.0 3.1
17:50 7.0 6.9 99 1011.8 13.6 S 21.3 0.0 3.1
17:51 7.0 6.9 99 1011.8 13.6 S 21.3 0.0 3.1
17:52 7.0 6.9 99 1011.8 14.5 S 21.3 0.0 3.1
17:53 7.0 6.9 99 1011.7 16.8 S 21.3 0.0 3.1
17:54 7.0 6.9 99 1011.7 17.4 S 21.3 0.0 3.1
17:55 7.0 6.9 99 1011.7 12.1 S 21.3 0.0 3.1
17:56 7.0 6.9 99 1011.6 16.8 S 21.3 0.0 3.1
17:57 7.1 7.0 99 1011.6 15.9 S 18.3 0.0 3.1
17:58 7.1 7.0 99 1011.5 13.0 S 18.3 0.0 3.1
18:00 7.1 7.0 99 1011.5 14.5 S 18.3 0.0 3.1
18:01 7.1 7.0 99 1011.4 14.5 S 18.3 0.0 3.1
18:02 7.1 7.0 99 1011.6 15.9 N 18.3 0.0 3.1
18:03 7.2 7.1 99 1011.7 20.6 S 20.6 0.0 3.1
18:04 7.2 7.1 99 1011.7 10.7 S 20.6 0.0 3.1
18:05 7.2 7.1 99 1011.5 15.2 N 20.6 0.0 3.1
18:06 7.2 7.1 99 1011.5 16.8 N 20.6 0.0 3.1
18:07 7.2 7.1 99 1011.5 15.2 S 20.6 0.0 3.1
18:08 7.2 7.1 99 1011.6 19.0 S 20.6 0.0 3.2
18:10 7.2 7.1 99 1011.5 19.7 S 21.3 0.8 3.2
18:12 7.3 7.2 99 1011.4 19.0 N 21.3 0.8 3.2
18:13 7.3 7.2 99 1011.5 20.6 S 21.3 0.8 3.2
18:14 7.3 7.2 99 1011.6 20.6 S 21.3 0.0 3.2
18:16 7.3 7.2 99 1011.6 17.4 N 21.3 0.0 3.2
18:17 7.4 7.3 99 1011.2 18.3 S 21.3 0.0 3.2
18:19 7.4 7.3 99 1011.4 19.0 S 21.3 0.8 3.3
18:20 7.4 7.3 99 1011.4 13.6 S 20.6 0.8 3.3
18:22 7.4 7.3 99 1011.2 16.8 S 20.6 0.8 3.3
18:23 7.4 7.3 99 1011.2 16.8 W 20.6 0.8 3.3
18:24 7.4 7.3 99 1011.2 14.5 SE 19.0 0.0 3.3
18:25 7.4 7.3 99 1011.2 13.6 WNW 19.0 0.0 3.3
18:27 7.4 7.3 99 1011.2 11.4 N 19.0 0.0 3.3
18:28 7.5 7.4 99 1011.0 15.2 S 19.0 0.0 3.3
18:29 7.4 7.3 99 1011.2 14.5 N 19.0 0.0 3.3
18:30 7.5 7.4 99 1011.2 14.5 S 16.8 0.0 3.3
18:31 7.5 7.4 99 1011.1 12.1 N 16.8 0.0 3.3
18:32 7.5 7.4 99 1011.1 18.3 S 18.3 0.0 3.3
18:34 7.5 7.4 99 1011.2 15.9 S 18.3 0.0 3.3
18:35 7.5 7.4 99 1011.0 16.8 W 18.3 0.0 3.3
18:37 7.5 7.4 99 1010.8 15.2 S 18.3 0.0 3.3
18:38 7.6 7.5 99 1010.9 16.8 S 18.3 0.8 3.3
18:39 7.6 7.5 99 1010.9 15.9 S 18.3 0.8 3.3
18:41 7.6 7.5 99 1011.0 13.6 WNW 18.3 1.5 3.4
18:42 7.6 7.5 99 1011.0 15.2 S 18.3 2.3 3.5
18:43 7.6 7.5 99 1011.0 15.2 WSW 16.8 1.5 3.5
18:44 7.6 7.5 99 1010.9 20.6 S 20.6 1.5 3.5
18:45 7.6 7.5 99 1010.9 19.7 NW 20.6 1.5 3.5
18:46 7.7 7.6 99 1010.6 15.9 WSW 20.6 1.5 3.5
18:48 7.7 7.6 99 1010.6 15.2 WSW 20.6 0.8 3.5
18:49 7.7 7.6 99 1010.5 18.3 S 20.6 0.8 3.5
18:50 7.7 7.6 99 1010.4 15.9 N 21.3 0.8 3.6
18:51 7.7 7.6 99 1010.3 19.0 N 21.3 0.8 3.6
18:52 7.7 7.6 99 1010.3 14.5 S 21.3 0.8 3.6
18:53 7.7 7.6 99 1010.4 18.3 S 21.3 0.8 3.6
18:55 7.7 7.6 99 1010.2 20.6 WSW 21.3 1.5 3.7
18:56 7.7 7.6 99 1010.2 20.6 WSW 21.3 0.8 3.7
18:57 7.7 7.6 99 1010.3 18.3 S 21.3 0.8 3.7
18:58 7.7 7.6 99 1010.1 28.2 W 28.2 0.8 3.7
18:59 7.7 7.6 99 1010.2 17.4 SW 28.2 0.8 3.7
19:00 7.7 7.6 99 1010.2 17.4 SW 28.2 0.0 3.7
19:01 7.7 7.6 99 1010.1 17.4 SW 28.2 0.0 3.7
19:02 7.7 7.6 99 1010.2 17.4 SW 28.2 0.0 3.7
19:04 7.7 7.6 99 1010.2 17.4 SW 28.2 0.0 3.7
19:05 7.7 7.6 99 1010.1 17.4 SW 28.2 0.0 3.7
19:06 7.8 7.7 99 1010.1 16.8 WSW 28.2 1.5 3.8
19:07 7.7 7.6 99 1009.9 17.4 S 28.2 1.5 3.8
19:08 7.8 7.7 99 1010.0 20.6 WSW 25.1 1.5 3.8
19:09 7.8 7.7 99 1009.9 22.1 NW 22.8 1.5 3.8
19:11 7.8 7.7 99 1009.8 18.3 S 22.8 0.8 3.8
19:12 7.8 7.7 99 1009.7 19.7 WSW 22.8 0.8 3.8
19:13 7.8 7.7 99 1009.8 15.9 WSW 22.8 0.8 3.8
19:15 7.8 7.7 99 1009.6 25.1 S 25.1 0.0 3.8
19:16 7.8 7.7 99 1009.6 22.1 S 25.1 0.0 3.8
19:17 7.8 7.7 99 1009.7 16.8 WSW 25.1 0.0 3.8
19:18 7.9 7.8 99 1009.6 19.0 WSW 25.1 0.8 3.9
19:19 7.9 7.8 99 1009.5 16.8 S 25.1 0.8 3.9
19:21 7.9 7.8 99 1009.5 22.8 WSW 25.1 0.8 3.9
19:22 7.9 7.8 99 1009.4 21.3 S 25.1 0.8 3.9
19:23 7.9 7.8 99 1009.4 24.4 NNW 25.1 0.0 3.9
19:24 7.9 7.8 99 1009.4 24.4 S 25.1 0.0 4.0
19:25 7.9 7.8 99 1009.3 16.8 S 24.4 0.8 4.0
19:26 7.9 7.8 99 1009.3 16.8 WSW 24.4 0.8 4.0
19:27 7.9 7.8 99 1009.4 15.9 WSW 24.4 0.8 4.0
19:29 7.9 7.8 99 1009.2 20.6 S 24.4 1.5 4.0
19:30 7.9 7.8 99 1009.2 29.8 WSW 29.8 0.8 4.0
19:31 8.0 7.9 99 1009.3 25.9 S 29.8 1.5 4.1
19:32 8.0 7.9 99 1009.1 16.8 S 29.8 1.5 4.1
19:33 8.0 7.9 99 1009.2 19.7 WSW 29.8 1.5 4.2
19:34 8.0 7.9 99 1009.3 19.7 WSW 29.8 1.5 4.2
19:35 8.0 7.9 99 1009.2 19.7 WSW 29.8 2.3 4.2
19:37 8.0 7.9 99 1009.1 20.6 W 29.8 2.3 4.3
19:38 8.0 7.9 99 1009.2 21.3 WSW 29.8 2.3 4.3
19:39 8.0 7.9 99 1009.1 24.4 WSW 29.8 2.3 4.3
19:40 8.0 7.9 99 1009.0 20.6 N 29.8 1.5 4.3
19:41 8.0 7.9 99 1008.7 20.6 WSW 24.4 1.5 4.4
19:42 8.0 7.9 99 1008.7 16.8 S 24.4 1.5 4.4
19:43 8.1 8.0 99 1008.7 22.8 S 24.4 1.5 4.5
19:44 8.1 8.0 99 1008.5 23.5 WSW 24.4 1.5 4.5
19:45 8.1 8.0 99 1008.4 23.5 S 24.4 1.5 4.5
19:47 8.1 8.0 99 1008.5 25.9 WSW 25.9 1.5 4.5
19:48 8.1 8.0 99 1008.3 24.4 S 25.9 2.3 4.6
19:49 8.1 8.0 99 1008.3 28.2 WSW 28.2 1.5 4.6
19:50 8.1 8.0 99 1008.1 24.4 S 28.2 1.5 4.7
19:51 8.1 8.0 99 1008.2 25.1 S 28.2 1.5 4.7
19:52 8.2 8.1 99 1008.2 25.1 S 28.2 1.5 4.7
19:53 8.2 8.1 99 1008.4 26.6 S 28.2 0.8 4.7
19:54 8.2 8.1 99 1008.1 22.8 S 28.2 1.5 4.7
19:55 8.2 8.1 99 1008.2 25.1 WSW 28.2 1.5 4.8
19:57 8.2 8.1 99 1007.9 26.6 S 28.2 1.5 4.8
19:58 8.3 8.2 99 1008.1 28.2 S 28.2 2.3 4.9
19:59 8.2 8.1 99 1008.2 33.6 SE 33.6 1.5 4.9
20:00 8.3 8.2 99 1008.1 28.2 WSW 33.6 1.5 4.9
20:01 8.3 8.2 99 1008.0 28.2 WSW 33.6 0.8 4.9
20:02 8.3 8.2 99 1008.1 28.2 WSW 33.6 0.8 4.9
20:03 8.3 8.2 99 1007.8 28.2 WSW 33.6 0.0 4.9
20:05 8.3 8.2 99 1007.7 29.8 W 33.6 0.8 4.9
20:06 8.3 8.2 99 1007.6 23.5 S 33.6 1.5 5.0
20:07 8.4 8.3 99 1007.8 30.4 S 33.6 1.5 5.0
20:08 8.4 8.3 99 1008.0 25.1 S 33.6 1.5 5.0
20:09 8.4 8.3 99 1007.7 30.4 S 30.4 1.5 5.0
20:10 8.4 8.3 99 1007.6 22.1 S 30.4 0.8 5.0
20:12 8.5 8.4 99 1007.5 26.6 S 30.4 0.8 5.0
20:13 8.5 8.4 99 1007.7 29.8 S 30.4 0.8 5.1
20:15 8.5 8.4 99 1007.4 19.7 S 34.2 1.5 5.1
20:17 8.5 8.4 99 1007.5 15.9 SW 34.2 0.8 5.2
20:18 8.5 8.4 99 1007.5 26.6 S 34.2 1.5 5.2
20:20 8.6 8.5 99 1007.3 23.5 S 34.2 0.8 5.2
20:21 8.6 8.5 99 1007.4 29.8 WSW 34.2 0.8 5.2
20:23 8.6 8.5 99 1007.5 39.6 S 39.6 0.8 5.2
20:25 8.7 8.6 99 1007.4 27.3 N 39.6 0.8 5.2
20:26 8.7 8.6 99 1007.2 26.6 S 39.6 0.8 5.2
20:28 8.7 8.6 99 1007.3 24.4 WSW 39.6 0.0 5.2
20:29 8.7 8.6 99 1007.3 29.8 S 39.6 0.0 5.2
20:30 8.7 8.6 99 1007.2 28.9 WSW 39.6 0.0 5.2
20:31 8.7 8.6 99 1007.3 23.5 S 39.6 0.0 5.2
20:32 8.7 8.6 99 1007.2 24.4 W 39.6 0.0 5.2
20:33 8.8 8.7 99 1007.1 25.1 S 29.8 0.0 5.2
20:34 8.8 8.7 99 1007.0 20.6 WSW 29.8 0.0 5.2
20:36 8.8 8.7 99 1006.9 34.2 N 34.2 0.0 5.2
20:37 8.8 8.7 99 1007.1 32.0 S 34.2 0.0 5.3
20:38 8.9 8.8 99 1006.9 26.6 WSW 34.2 0.8 5.3
20:39 8.9 8.8 99 1007.0 27.3 WSW 34.2 0.8 5.3
20:40 8.9 8.8 99 1006.9 22.1 WSW 34.2 0.8 5.3
20:41 8.9 8.8 99 1007.0 22.8 S 34.2 0.8 5.3
20:42 8.9 8.8 99 1006.8 28.9 S 34.2 0.8 5.3
20:43 8.9 8.8 99 1006.8 25.9 S 34.2 0.0 5.3
20:45 9.0 8.9 99 1006.7 31.1 S 34.2 0.0 5.3
20:46 9.0 8.9 99 1007.0 28.9 S 34.2 0.0 5.3
20:47 9.0 8.9 99 1006.8 34.2 WSW 34.2 0.0 5.3
20:48 9.0 8.9 99 1006.9 34.9 WSW 34.9 0.0 5.3
20:49 9.0 8.9 99 1006.9 34.2 S 34.9 0.0 5.3
20:50 9.1 9.0 99 1006.7 32.0 WSW 34.9 0.0 5.3
20:51 9.1 9.0 99 1006.7 26.6 WSW 34.9 0.0 5.3
20:52 9.1 9.0 99 1006.9 25.1 S 34.9 0.0 5.3
20:54 9.1 9.0 99 1007.0 32.7 S 34.9 0.0 5.3
20:55 9.1 9.0 99 1006.7 26.6 WSW 34.9 0.0 5.3
20:56 9.2 9.1 99 1006.6 32.7 S 34.9 0.0 5.3
20:57 9.2 9.1 99 1006.7 27.3 WSW 34.9 0.0 5.3
20:58 9.2 9.1 99 1006.6 31.1 WSW 34.9 0.0 5.3
21:00 9.2 9.1 99 1006.7 26.6 W 34.9 0.0 5.3
21:01 9.2 9.1 99 1006.4 26.6 W 34.9 0.0 5.3
21:02 9.2 9.1 99 1006.5 28.2 WSW 34.9 0.0 5.3
21:03 9.3 9.2 99 1006.6 36.5 WSW 36.5 0.0 5.3
21:04 9.3 9.2 99 1006.6 30.4 S 36.5 0.0 5.3
21:05 9.3 9.2 99 1006.3 32.7 WSW 36.5 0.0 5.3
21:07 9.3 9.2 99 1006.4 26.6 WSW 36.5 0.0 5.3
21:08 9.3 9.2 99 1006.4 37.4 SW 37.4 0.0 5.3
21:09 9.3 9.2 99 1006.1 30.4 WSW 37.4 0.0 5.3
21:10 9.4 9.3 99 1006.2 28.2 S 37.4 0.0 5.3
21:11 9.4 9.3 99 1006.4 34.9 S 37.4 0.0 5.3
21:13 9.4 9.3 99 1006.2 28.2 SW 37.4 0.0 5.3
21:15 9.4 9.3 99 1006.1 32.0 NNW 37.4 0.0 5.4
21:16 9.4 9.3 99 1006.3 28.9 WSW 37.4 0.8 5.4
21:17 9.5 9.4 99 1006.2 28.9 WSW 37.4 0.8 5.4
21:18 9.4 9.3 99 1006.0 34.2 WSW 37.4 1.5 5.4
21:19 9.5 9.4 99 1006.0 23.5 S 35.8 2.3 5.5
21:20 9.5 9.4 99 1006.0 32.7 S 35.8 2.3 5.5
21:21 9.5 9.4 99 1006.0 28.2 S 34.9 2.3 5.5
21:23 9.5 9.4 99 1005.8 33.6 WSW 34.2 2.3 5.6
21:24 9.5 9.4 99 1005.9 30.4 WSW 34.2 1.5 5.6
21:25 9.5 9.4 99 1005.9 25.9 WSW 34.2 1.5 5.6
21:26 9.5 9.4 99 1006.0 28.2 S 34.2 1.5 5.7
21:27 9.5 9.4 99 1005.9 29.8 WSW 34.2 1.5 5.7
21:28 9.5 9.4 99 1005.8 31.1 NNW 33.6 0.8 5.7
21:30 9.5 9.4 99 1005.8 29.8 S 33.6 1.5 5.8
21:31 9.6 9.5 99 1005.8 34.9 S 34.9 1.5 5.8
21:32 9.6 9.5 99 1005.6 34.2 WSW 36.5 1.5 5.9
21:33 9.6 9.5 99 1005.6 29.8 WSW 36.5 2.3 5.9
21:34 9.6 9.5 99 1005.7 24.4 W 36.5 2.3 5.9
21:36 9.6 9.5 99 1005.5 43.4 S 43.4 2.3 6.0
21:37 9.6 9.5 99 1005.7 33.6 N 43.4 2.3 6.0
21:38 9.6 9.5 99 1005.7 28.9 WSW 43.4 2.3 6.0
21:39 9.6 9.5 99 1005.7 38.7 WSW 43.4 2.3 6.1
21:40 9.6 9.5 99 1005.8 37.4 S 43.4 2.3 6.1
21:42 9.6 9.5 99 1005.4 28.2 WSW 43.4 2.3 6.2
21:43 9.7 9.6 99 1005.6 36.5 S 43.4 1.5 6.2
21:44 9.7 9.6 99 1005.5 28.9 NNW 43.4 0.8 6.2
21:45 9.7 9.6 99 1005.4 28.9 S 43.4 0.8 6.2
21:46 9.7 9.6 99 1005.7 27.3 WSW 38.7 0.8 6.2
21:47 9.7 9.6 99 1005.5 28.9 WSW 38.7 0.8 6.2
21:48 9.7 9.6 99 1005.4 30.4 WSW 38.7 0.8 6.2
21:49 9.7 9.6 99 1005.4 31.1 S 38.7 0.8 6.2
21:51 9.7 9.6 99 1005.2 23.5 WSW 38.0 1.5 6.3
21:52 9.6 9.5 99 1005.5 28.2 WNW 36.5 1.5 6.4
21:53 9.7 9.6 99 1005.2 32.7 WSW 32.7 1.5 6.4
21:54 9.7 9.6 99 1005.4 33.6 S 33.6 3.0 6.5
21:55 9.7 9.6 99 1004.7 28.9 S 33.6 3.0 6.6
21:56 9.7 9.6 99 1005.2 39.6 S 39.6 3.0 6.6
21:57 9.7 9.6 99 1005.0 28.9 S 39.6 2.3 6.6
21:58 9.7 9.6 99 1005.2 26.6 WSW 39.6 3.0 6.6
21:59 9.7 9.6 99 1005.2 25.9 SW 39.6 1.5 6.7
22:01 9.7 9.6 99 1005.2 25.9 SW 39.6 1.5 6.7
22:02 9.7 9.6 99 1004.9 33.6 S 39.6 2.3 6.7
22:03 9.7 9.6 99 1004.8 25.1 WSW 39.6 1.5 6.7
22:04 9.7 9.6 99 1005.0 24.4 WSW 39.6 2.3 6.8
22:05 9.7 9.6 99 1004.9 26.6 WNW 39.6 1.5 6.8
22:06 9.7 9.6 99 1005.1 28.2 WSW 33.6 1.5 6.8
22:07 9.7 9.6 99 1005.0 35.8 NW 35.8 0.8 6.9
22:08 9.7 9.6 99 1005.0 32.7 NW 35.8 1.5 6.9
22:09 9.7 9.6 99 1005.0 34.2 NW 35.8 0.8 6.9
22:11 9.7 9.6 99 1005.2 25.9 WSW 35.8 1.5 6.9
22:12 9.8 9.7 99 1004.9 35.8 S 35.8 1.5 6.9
22:14 9.8 9.7 99 1005.0 28.9 S 35.8 0.8 6.9
22:15 9.7 9.6 99 1004.7 28.9 S 35.8 1.5 7.1
22:17 9.8 9.7 99 1004.8 28.9 S 35.8 1.5 7.1
22:18 9.8 9.7 99 1005.0 32.0 S 35.8 2.3 7.1
22:20 9.8 9.7 99 1005.0 41.8 S 41.8 1.5 7.2
22:22 9.8 9.7 99 1004.6 31.1 WSW 41.8 1.5 7.2
22:24 9.8 9.7 99 1004.6 30.4 S 41.8 1.5 7.2
22:25 9.8 9.7 99 1004.8 30.4 WSW 41.8 1.5 7.2
22:27 9.8 9.7 99 1004.8 28.9 WSW 41.8 1.5 7.3
22:28 9.8 9.7 99 1004.5 28.2 WSW 41.8 0.8 7.3
22:29 9.8 9.7 99 1004.6 30.4 WSW 41.8 0.8 7.3
22:30 9.8 9.7 99 1004.5 32.7 S 32.7 1.5 7.4
22:31 9.9 9.8 99 1004.5 26.6 S 32.7 1.5 7.4
22:33 9.9 9.8 99 1004.5 30.4 WSW 32.7 1.5 7.4
22:34 9.9 9.8 99 1004.7 34.9 WSW 34.9 1.5 7.4
22:35 9.9 9.8 99 1004.4 27.3 S 34.9 1.5 7.5
22:36 9.8 9.7 99 1004.4 26.6 S 34.9 1.5 7.5
22:37 9.9 9.8 99 1004.9 33.6 WSW 34.9 1.5 7.5
22:38 9.9 9.8 99 1004.3 25.1 WSW 34.9 1.5 7.6
22:39 9.9 9.8 99 1004.3 28.9 WSW 34.9 1.5 7.6
22:40 9.9 9.8 99 1004.3 31.1 WSW 34.9 0.8 7.6
22:41 9.9 9.8 99 1004.5 25.1 NE 34.9 0.8 7.6
22:43 9.9 9.8 99 1004.5 28.2 WSW 34.9 0.8 7.6
22:44 9.9 9.8 99 1004.4 28.9 WSW 34.9 1.5 7.7
22:45 9.9 9.8 99 1004.3 27.3 WSW 33.6 1.5 7.7
22:46 9.9 9.8 99 1004.4 33.6 WSW 33.6 2.3 7.7
22:47 10.0 9.9 99 1004.7 28.9 WNW 33.6 1.5 7.7
22:48 10.0 9.9 99 1004.6 24.4 WSW 33.6 1.5 7.8
22:49 9.9 9.8 99 1004.4 27.3 WNW 33.6 1.5 7.8
22:50 9.9 9.8 99 1004.7 33.6 S 34.2 1.5 7.8
22:52 10.0 9.9 99 1004.7 32.7 WSW 34.2 1.5 7.9
22:53 10.0 9.9 99 1004.8 26.6 S 34.2 1.5 7.9
22:54 10.0 9.9 99 1004.5 28.9 WSW 34.2 0.8 7.9
22:55 10.0 9.9 99 1004.4 30.4 WSW 34.2 1.5 7.9
22:56 10.0 9.9 99 1004.6 30.4 S 34.2 1.5 7.9
22:57 10.0 9.9 99 1004.5 34.9 WSW 34.9 0.8 7.9
22:58 10.0 9.9 99 1004.5 32.0 WSW 34.9 0.8 7.9
22:59 10.0 9.9 99 1004.7 29.8 W 34.9 0.8 7.9
23:00 10.0 9.9 99 1004.4 29.8 W 34.9 0.0 7.9
23:02 10.0 9.9 99 1004.2 25.9 S 34.9 0.8 8.0
23:03 10.0 9.9 99 1004.1 33.6 WSW 34.9 0.8 8.0
23:04 10.0 9.9 99 1004.3 41.8 WSW 41.8 0.8 8.0
23:05 10.1 10.0 99 1004.4 25.9 WSW 41.8 0.8 8.0
23:06 10.1 10.0 99 1004.5 31.1 WSW 41.8 0.8 8.0
23:07 10.1 10.0 99 1004.4 41.8 WSW 41.8 0.0 8.0
23:08 10.1 10.0 99 1004.2 25.9 WSW 41.8 0.0 8.0
23:09 10.1 10.0 99 1004.3 19.7 WSW 41.8 0.0 8.0
23:10 10.1 10.0 99 1004.4 25.1 WSW 41.8 0.0 8.0
23:12 10.1 10.0 99 1004.6 34.9 S 41.8 0.8 8.1
23:13 10.1 10.0 99 1004.4 41.2 WSW 41.8 0.8 8.1
23:14 10.1 10.0 99 1004.4 23.5 NNW 41.8 0.8 8.1
23:15 10.1 10.0 99 1004.3 27.3 WSW 41.8 0.8 8.1
23:16 10.2 10.1 99 1004.2 31.1 N 41.8 0.8 8.1
23:17 10.2 10.1 99 1004.3 28.9 SW 41.8 0.0 8.1
23:18 10.2 10.1 99 1004.3 29.8 WSW 41.2 0.0 8.1
23:20 10.2 10.1 99 1004.3 35.8 WSW 41.2 0.0 8.1
23:21 10.2 10.1 99 1004.2 31.1 WSW 41.2 0.0 8.1
23:22 10.2 10.1 99 1004.2 22.8 S 41.2 0.0 8.1
23:23 10.2 10.1 99 1004.2 23.5 WSW 41.2 0.0 8.1
23:24 10.2 10.1 99 1004.2 24.4 WSW 35.8 0.0 8.1
23:25 10.2 10.1 99 1004.4 21.3 S 35.8 0.0 8.1
23:27 10.2 10.1 99 1003.9 34.9 S 35.8 0.0 8.1
23:28 10.2 10.1 99 1004.0 32.0 WSW 35.8 0.0 8.1
23:29 10.2 10.1 99 1003.6 32.7 WSW 35.8 0.0 8.1
23:30 10.2 10.1 99 1004.0 35.8 WSW 35.8 0.0 8.1
23:31 10.3 10.2 99 1004.3 37.4 S 37.4 0.0 8.1
23:32 10.3 10.2 99 1004.0 24.4 WSW 37.4 0.8 8.1
23:33 10.3 10.2 99 1004.0 24.4 WSW 37.4 0.8 8.1
23:34 10.3 10.2 99 1004.0 28.2 WSW 37.4 0.8 8.1
23:36 10.3 10.2 99 1004.0 22.8 S 37.4 0.8 8.1
23:37 10.3 10.2 99 1003.8 33.6 S 37.4 0.0 8.1
23:38 10.3 10.2 99 1003.9 35.8 WSW 37.4 0.0 8.1
23:39 10.3 10.2 99 1004.1 32.7 WSW 37.4 0.0 8.1
23:40 10.3 10.2 99 1003.9 25.9 WSW 37.4 0.0 8.1
23:41 10.3 10.2 99 1004.0 26.6 WSW 37.4 0.0 8.1
23:42 10.3 10.2 99 1004.0 29.8 NW 35.8 0.0 8.2
23:44 10.3 10.2 99 1003.9 29.8 WSW 35.8 0.8 8.2
23:45 10.3 10.2 99 1003.8 31.1 S 35.8 0.8 8.2
23:46 10.3 10.2 99 1003.8 32.7 S 35.8 0.8 8.2
23:47 10.4 10.3 99 1003.9 31.1 WSW 35.8 0.8 8.2
23:48 10.3 10.2 99 1004.1 24.4 S 32.7 0.0 8.2
23:49 10.4 10.3 99 1003.7 32.0 WSW 32.7 0.0 8.2
23:50 10.4 10.3 99 1003.8 25.9 NW 32.7 0.0 8.2
23:51 10.4 10.3 99 1004.1 33.6 NW 33.6 0.0 8.3
23:52 10.4 10.3 99 1003.8 28.9 S 33.6 0.8 8.3
23:54 10.4 10.3 99 1004.1 28.2 WSW 33.6 0.8 8.3
23:55 10.4 10.3 99 1003.9 34.9 WSW 34.9 0.8 8.3
23:56 10.4 10.3 99 1004.0 29.8 WSW 34.9 0.8 8.3
23:57 10.4 10.3 99 1003.8 36.5 WSW 36.5 0.0 8.3
23:58 10.5 10.4 99 1003.9 29.8 WSW 36.5 0.0 8.3

UK - WEATHER STATION TOPSITES - UK World Weather Websites

This is a private weather station, never base important decisions or events on data from this weather station. Although every effort has been made to make the data as accurate as possible it does not meet MetOffice standards. It is proved as a guide of local weather conditions. We accept no liability for any loss which may arise from use of the data.

Copyright © Carnkie Weather 2009 - 2018.